<?xml version="1.0" encoding="UTF-8" standalone="no" ?>
<gpx xmlns="http://www.topografix.com/GPX/1/1" xmlns:xsi="http://www.w3.org/2001/XMLSchema-instance" xsi:schemaLocation="http://www.topografix.com/GPX/1/1 http://www.topografix.com/GPX/1/1/gpx.xsd" version="1.1" creator="VisuGPX - https://www.visugpx.com">
  <metadata>
    <name>64 - PEDESTRE - Pic Bersaut - Bilhères au Benou</name>
    <desc><![CDATA[Sortie tranquille avant l'orage]]></desc>
  </metadata>
  <wpt lat="43.07797" lon="-0.4724">
    <ele>1373.118408</ele>
    <name><![CDATA[Bersaut 1368m]]></name>
    <desc><![CDATA[16-FEV-13 22:56:21]]></desc>
    <cmt><![CDATA[16-FEV-13 22:56:21]]></cmt>
  </wpt>
  <wpt lat="43.0622" lon="-0.45729">
    <ele>821.7</ele>
    <name><![CDATA[Chapelle de Ho]]></name>
    <desc><![CDATA[Chapelle de Houndas]]></desc>
    <cmt><![CDATA[Chapelle de Houndas]]></cmt>
  </wpt>
  <wpt lat="43.07662" lon="-0.47276">
    <ele>1316.8</ele>
    <name><![CDATA[Col de la Houn]]></name>
    <desc><![CDATA[Col de la Houn Barrade 1316m]]></desc>
    <cmt><![CDATA[Col de la Houn Barrade 1316m]]></cmt>
  </wpt>
  <wpt lat="43.06739" lon="-0.44705">
    <ele>966.964355</ele>
    <name><![CDATA[Cromlechs de L]]></name>
    <desc><![CDATA[Cromlechs de Lous Couraus 967m]]></desc>
    <cmt><![CDATA[Cromlechs de Lous Couraus 967m]]></cmt>
  </wpt>
  <wpt lat="43.06343" lon="-0.45772">
    <ele>839.110107</ele>
    <name><![CDATA[Départ]]></name>
    <desc><![CDATA[Départ-D294]]></desc>
    <cmt><![CDATA[Départ-D294]]></cmt>
  </wpt>
  <wpt lat="43.07804" lon="-0.47267">
    <ele>1363.5</ele>
    <name><![CDATA[Pic Bersaut 13]]></name>
    <desc><![CDATA[Pic Bersaut 1368m]]></desc>
    <cmt><![CDATA[Pic Bersaut 1368m]]></cmt>
  </wpt>
  <trk>
    <name><![CDATA[ACTIVE LOG 002]]></name>
    <trkseg>
      <trkpt lat="43.06326" lon="-0.45728">
        <ele>840.32959</ele>
        <time>2014-08-10T08:28:26Z</time>
      </trkpt>
      <trkpt lat="43.06326" lon="-0.45728">
        <ele>840.32959</ele>
        <time>2014-08-10T08:28:27Z</time>
      </trkpt>
      <trkpt lat="43.06326" lon="-0.45728">
        <ele>840.32959</ele>
        <time>2014-08-10T08:28:28Z</time>
      </trkpt>
      <trkpt lat="43.06329" lon="-0.45727">
        <ele>840.810059</ele>
        <time>2014-08-10T08:28:41Z</time>
      </trkpt>
      <trkpt lat="43.06334" lon="-0.45732">
        <ele>839.848877</ele>
        <time>2014-08-10T08:28:55Z</time>
      </trkpt>
      <trkpt lat="43.06334" lon="-0.45734">
        <ele>839.848877</ele>
        <time>2014-08-10T08:28:57Z</time>
      </trkpt>
      <trkpt lat="43.06339" lon="-0.45752">
        <ele>841.290771</ele>
        <time>2014-08-10T08:29:12Z</time>
      </trkpt>
      <trkpt lat="43.06345" lon="-0.45762">
        <ele>841.771484</ele>
        <time>2014-08-10T08:29:24Z</time>
      </trkpt>
      <trkpt lat="43.0635" lon="-0.45762">
        <ele>843.213379</ele>
        <time>2014-08-10T08:29:36Z</time>
      </trkpt>
      <trkpt lat="43.06352" lon="-0.4576">
        <ele>843.694092</ele>
        <time>2014-08-10T08:29:51Z</time>
      </trkpt>
      <trkpt lat="43.06353" lon="-0.45759">
        <ele>843.694092</ele>
        <time>2014-08-10T08:29:57Z</time>
      </trkpt>
      <trkpt lat="43.06362" lon="-0.45748">
        <ele>845.616943</ele>
        <time>2014-08-10T08:30:09Z</time>
      </trkpt>
      <trkpt lat="43.06373" lon="-0.45733">
        <ele>847.058838</ele>
        <time>2014-08-10T08:30:24Z</time>
      </trkpt>
      <trkpt lat="43.06387" lon="-0.45723">
        <ele>848.981445</ele>
        <time>2014-08-10T08:30:38Z</time>
      </trkpt>
      <trkpt lat="43.06401" lon="-0.45705">
        <ele>849.942871</ele>
        <time>2014-08-10T08:30:54Z</time>
      </trkpt>
      <trkpt lat="43.06415" lon="-0.45687">
        <ele>850.423584</ele>
        <time>2014-08-10T08:31:10Z</time>
      </trkpt>
      <trkpt lat="43.0642" lon="-0.45682">
        <ele>850.904053</ele>
        <time>2014-08-10T08:31:16Z</time>
      </trkpt>
      <trkpt lat="43.06431" lon="-0.45665">
        <ele>851.865479</ele>
        <time>2014-08-10T08:31:31Z</time>
      </trkpt>
      <trkpt lat="43.06442" lon="-0.45646">
        <ele>853.307373</ele>
        <time>2014-08-10T08:31:46Z</time>
      </trkpt>
      <trkpt lat="43.06448" lon="-0.45633">
        <ele>853.307373</ele>
        <time>2014-08-10T08:31:57Z</time>
      </trkpt>
      <trkpt lat="43.06452" lon="-0.45625">
        <ele>853.788086</ele>
        <time>2014-08-10T08:32:12Z</time>
      </trkpt>
      <trkpt lat="43.06459" lon="-0.45606">
        <ele>854.268799</ele>
        <time>2014-08-10T08:32:34Z</time>
      </trkpt>
      <trkpt lat="43.06471" lon="-0.4558">
        <ele>854.749268</ele>
        <time>2014-08-10T08:32:51Z</time>
      </trkpt>
      <trkpt lat="43.06486" lon="-0.45551">
        <ele>855.710693</ele>
        <time>2014-08-10T08:33:10Z</time>
      </trkpt>
      <trkpt lat="43.06499" lon="-0.45525">
        <ele>857.633301</ele>
        <time>2014-08-10T08:33:28Z</time>
      </trkpt>
      <trkpt lat="43.06508" lon="-0.45504">
        <ele>859.075195</ele>
        <time>2014-08-10T08:33:42Z</time>
      </trkpt>
      <trkpt lat="43.06513" lon="-0.45489">
        <ele>858.594482</ele>
        <time>2014-08-10T08:33:53Z</time>
      </trkpt>
      <trkpt lat="43.06518" lon="-0.45475">
        <ele>858.114014</ele>
        <time>2014-08-10T08:34:03Z</time>
      </trkpt>
      <trkpt lat="43.06526" lon="-0.45453">
        <ele>857.633301</ele>
        <time>2014-08-10T08:34:19Z</time>
      </trkpt>
      <trkpt lat="43.06533" lon="-0.45431">
        <ele>857.633301</ele>
        <time>2014-08-10T08:34:34Z</time>
      </trkpt>
      <trkpt lat="43.06543" lon="-0.45406">
        <ele>857.633301</ele>
        <time>2014-08-10T08:34:51Z</time>
      </trkpt>
      <trkpt lat="43.0655" lon="-0.45383">
        <ele>858.594482</ele>
        <time>2014-08-10T08:35:08Z</time>
      </trkpt>
      <trkpt lat="43.06555" lon="-0.4536">
        <ele>859.075195</ele>
        <time>2014-08-10T08:35:23Z</time>
      </trkpt>
      <trkpt lat="43.06556" lon="-0.45346">
        <ele>859.555908</ele>
        <time>2014-08-10T08:35:32Z</time>
      </trkpt>
      <trkpt lat="43.06557" lon="-0.45336">
        <ele>860.517334</ele>
        <time>2014-08-10T08:35:38Z</time>
      </trkpt>
      <trkpt lat="43.06561" lon="-0.45322">
        <ele>860.517334</ele>
        <time>2014-08-10T08:35:48Z</time>
      </trkpt>
      <trkpt lat="43.06567" lon="-0.45299">
        <ele>860.998047</ele>
        <time>2014-08-10T08:36:03Z</time>
      </trkpt>
      <trkpt lat="43.06571" lon="-0.45281">
        <ele>862.920654</ele>
        <time>2014-08-10T08:36:15Z</time>
      </trkpt>
      <trkpt lat="43.06577" lon="-0.45259">
        <ele>864.362549</ele>
        <time>2014-08-10T08:36:30Z</time>
      </trkpt>
      <trkpt lat="43.06584" lon="-0.45237">
        <ele>867.727051</ele>
        <time>2014-08-10T08:36:45Z</time>
      </trkpt>
      <trkpt lat="43.0659" lon="-0.45219">
        <ele>869.169189</ele>
        <time>2014-08-10T08:36:58Z</time>
      </trkpt>
      <trkpt lat="43.06598" lon="-0.45206">
        <ele>870.611084</ele>
        <time>2014-08-10T08:37:12Z</time>
      </trkpt>
      <trkpt lat="43.0661" lon="-0.45201">
        <ele>872.052979</ele>
        <time>2014-08-10T08:37:25Z</time>
      </trkpt>
      <trkpt lat="43.06618" lon="-0.45195">
        <ele>872.052979</ele>
        <time>2014-08-10T08:37:33Z</time>
      </trkpt>
      <trkpt lat="43.06621" lon="-0.45194">
        <ele>872.533691</ele>
        <time>2014-08-10T08:37:36Z</time>
      </trkpt>
      <trkpt lat="43.06638" lon="-0.45183">
        <ele>873.014404</ele>
        <time>2014-08-10T08:37:53Z</time>
      </trkpt>
      <trkpt lat="43.06654" lon="-0.45173">
        <ele>873.495117</ele>
        <time>2014-08-10T08:38:07Z</time>
      </trkpt>
      <trkpt lat="43.06661" lon="-0.45165">
        <ele>873.975586</ele>
        <time>2014-08-10T08:38:19Z</time>
      </trkpt>
      <trkpt lat="43.06662" lon="-0.45164">
        <ele>873.975586</ele>
        <time>2014-08-10T08:38:21Z</time>
      </trkpt>
      <trkpt lat="43.06665" lon="-0.45161">
        <ele>874.456299</ele>
        <time>2014-08-10T08:38:25Z</time>
      </trkpt>
      <trkpt lat="43.06677" lon="-0.45149">
        <ele>875.898193</ele>
        <time>2014-08-10T08:38:36Z</time>
      </trkpt>
      <trkpt lat="43.06677" lon="-0.45134">
        <ele>877.340576</ele>
        <time>2014-08-10T08:38:50Z</time>
      </trkpt>
      <trkpt lat="43.06669" lon="-0.45129">
        <ele>879.262939</ele>
        <time>2014-08-10T08:39:01Z</time>
      </trkpt>
      <trkpt lat="43.06664" lon="-0.45123">
        <ele>880.705078</ele>
        <time>2014-08-10T08:39:11Z</time>
      </trkpt>
      <trkpt lat="43.06651" lon="-0.45116">
        <ele>883.108154</ele>
        <time>2014-08-10T08:39:26Z</time>
      </trkpt>
      <trkpt lat="43.06647" lon="-0.45105">
        <ele>883.108154</ele>
        <time>2014-08-10T08:39:36Z</time>
      </trkpt>
      <trkpt lat="43.06645" lon="-0.451">
        <ele>884.06958</ele>
        <time>2014-08-10T08:39:41Z</time>
      </trkpt>
      <trkpt lat="43.0664" lon="-0.45078">
        <ele>886.953369</ele>
        <time>2014-08-10T08:39:56Z</time>
      </trkpt>
      <trkpt lat="43.06637" lon="-0.45058">
        <ele>887.914795</ele>
        <time>2014-08-10T08:40:09Z</time>
      </trkpt>
      <trkpt lat="43.06635" lon="-0.45045">
        <ele>889.837402</ele>
        <time>2014-08-10T08:40:20Z</time>
      </trkpt>
      <trkpt lat="43.06634" lon="-0.45028">
        <ele>892.240967</ele>
        <time>2014-08-10T08:40:32Z</time>
      </trkpt>
      <trkpt lat="43.06636" lon="-0.45021">
        <ele>892.240967</ele>
        <time>2014-08-10T08:40:36Z</time>
      </trkpt>
      <trkpt lat="43.06636" lon="-0.4501">
        <ele>893.682861</ele>
        <time>2014-08-10T08:40:43Z</time>
      </trkpt>
      <trkpt lat="43.06638" lon="-0.44991">
        <ele>895.605469</ele>
        <time>2014-08-10T08:40:56Z</time>
      </trkpt>
      <trkpt lat="43.06637" lon="-0.44968">
        <ele>898.008789</ele>
        <time>2014-08-10T08:41:11Z</time>
      </trkpt>
      <trkpt lat="43.06634" lon="-0.44943">
        <ele>898.489258</ele>
        <time>2014-08-10T08:41:27Z</time>
      </trkpt>
      <trkpt lat="43.0663" lon="-0.4492">
        <ele>898.489258</ele>
        <time>2014-08-10T08:41:41Z</time>
      </trkpt>
      <trkpt lat="43.06628" lon="-0.44905">
        <ele>898.969971</ele>
        <time>2014-08-10T08:41:51Z</time>
      </trkpt>
      <trkpt lat="43.06625" lon="-0.44881">
        <ele>899.931396</ele>
        <time>2014-08-10T08:42:06Z</time>
      </trkpt>
      <trkpt lat="43.06622" lon="-0.44858">
        <ele>900.412109</ele>
        <time>2014-08-10T08:42:21Z</time>
      </trkpt>
      <trkpt lat="43.0662" lon="-0.44832">
        <ele>902.815186</ele>
        <time>2014-08-10T08:42:38Z</time>
      </trkpt>
      <trkpt lat="43.06618" lon="-0.44812">
        <ele>903.776611</ele>
        <time>2014-08-10T08:42:51Z</time>
      </trkpt>
      <trkpt lat="43.06614" lon="-0.44787">
        <ele>905.218506</ele>
        <time>2014-08-10T08:43:07Z</time>
      </trkpt>
      <trkpt lat="43.06613" lon="-0.44762">
        <ele>905.218506</ele>
        <time>2014-08-10T08:43:22Z</time>
      </trkpt>
      <trkpt lat="43.06613" lon="-0.44735">
        <ele>905.699219</ele>
        <time>2014-08-10T08:43:39Z</time>
      </trkpt>
      <trkpt lat="43.06613" lon="-0.44718">
        <ele>906.179688</ele>
        <time>2014-08-10T08:43:55Z</time>
      </trkpt>
      <trkpt lat="43.06614" lon="-0.44707">
        <ele>906.6604</ele>
        <time>2014-08-10T08:44:07Z</time>
      </trkpt>
      <trkpt lat="43.06616" lon="-0.44701">
        <ele>908.102783</ele>
        <time>2014-08-10T08:45:35Z</time>
      </trkpt>
      <trkpt lat="43.0662" lon="-0.44681">
        <ele>909.544678</ele>
        <time>2014-08-10T08:45:50Z</time>
      </trkpt>
      <trkpt lat="43.06626" lon="-0.44659">
        <ele>910.505859</ele>
        <time>2014-08-10T08:46:05Z</time>
      </trkpt>
      <trkpt lat="43.06626" lon="-0.44637">
        <ele>912.90918</ele>
        <time>2014-08-10T08:46:20Z</time>
      </trkpt>
      <trkpt lat="43.06633" lon="-0.44617">
        <ele>915.793213</ele>
        <time>2014-08-10T08:46:37Z</time>
      </trkpt>
      <trkpt lat="43.06639" lon="-0.44606">
        <ele>917.235107</ele>
        <time>2014-08-10T08:47:00Z</time>
      </trkpt>
      <trkpt lat="43.06647" lon="-0.44589">
        <ele>918.196289</ele>
        <time>2014-08-10T08:47:14Z</time>
      </trkpt>
      <trkpt lat="43.06648" lon="-0.44588">
        <ele>918.677002</ele>
        <time>2014-08-10T08:47:15Z</time>
      </trkpt>
      <trkpt lat="43.06654" lon="-0.4457">
        <ele>920.118896</ele>
        <time>2014-08-10T08:47:29Z</time>
      </trkpt>
      <trkpt lat="43.06662" lon="-0.44547">
        <ele>920.599609</ele>
        <time>2014-08-10T08:47:46Z</time>
      </trkpt>
      <trkpt lat="43.0667" lon="-0.44529">
        <ele>923.00293</ele>
        <time>2014-08-10T08:48:00Z</time>
      </trkpt>
      <trkpt lat="43.06679" lon="-0.44508">
        <ele>924.445068</ele>
        <time>2014-08-10T08:48:15Z</time>
      </trkpt>
      <trkpt lat="43.0668" lon="-0.44507">
        <ele>924.445068</ele>
        <time>2014-08-10T08:48:16Z</time>
      </trkpt>
      <trkpt lat="43.06683" lon="-0.44488">
        <ele>925.886963</ele>
        <time>2014-08-10T08:48:29Z</time>
      </trkpt>
      <trkpt lat="43.06685" lon="-0.44468">
        <ele>928.290283</ele>
        <time>2014-08-10T08:48:43Z</time>
      </trkpt>
      <trkpt lat="43.06692" lon="-0.44445">
        <ele>929.732178</ele>
        <time>2014-08-10T08:48:58Z</time>
      </trkpt>
      <trkpt lat="43.067" lon="-0.44424">
        <ele>931.654785</ele>
        <time>2014-08-10T08:49:13Z</time>
      </trkpt>
      <trkpt lat="43.0671" lon="-0.44406">
        <ele>933.09668</ele>
        <time>2014-08-10T08:49:28Z</time>
      </trkpt>
      <trkpt lat="43.0672" lon="-0.44389">
        <ele>934.538818</ele>
        <time>2014-08-10T08:49:44Z</time>
      </trkpt>
      <trkpt lat="43.06723" lon="-0.44386">
        <ele>934.058105</ele>
        <time>2014-08-10T08:49:47Z</time>
      </trkpt>
      <trkpt lat="43.06735" lon="-0.4437">
        <ele>935.019531</ele>
        <time>2014-08-10T08:50:02Z</time>
      </trkpt>
      <trkpt lat="43.06748" lon="-0.44354">
        <ele>937.422607</ele>
        <time>2014-08-10T08:50:17Z</time>
      </trkpt>
      <trkpt lat="43.06761" lon="-0.4434">
        <ele>938.864746</ele>
        <time>2014-08-10T08:50:32Z</time>
      </trkpt>
      <trkpt lat="43.06768" lon="-0.44332">
        <ele>939.825928</ele>
        <time>2014-08-10T08:50:41Z</time>
      </trkpt>
      <trkpt lat="43.06773" lon="-0.44326">
        <ele>940.787354</ele>
        <time>2014-08-10T08:50:54Z</time>
      </trkpt>
      <trkpt lat="43.06776" lon="-0.44322">
        <ele>940.787354</ele>
        <time>2014-08-10T08:51:04Z</time>
      </trkpt>
      <trkpt lat="43.06792" lon="-0.44319">
        <ele>943.671387</ele>
        <time>2014-08-10T08:51:20Z</time>
      </trkpt>
      <trkpt lat="43.06809" lon="-0.44317">
        <ele>944.632568</ele>
        <time>2014-08-10T08:51:35Z</time>
      </trkpt>
      <trkpt lat="43.06828" lon="-0.44324">
        <ele>943.671387</ele>
        <time>2014-08-10T08:51:52Z</time>
      </trkpt>
      <trkpt lat="43.06835" lon="-0.44328">
        <ele>943.671387</ele>
        <time>2014-08-10T08:51:59Z</time>
      </trkpt>
      <trkpt lat="43.06841" lon="-0.44335">
        <ele>943.190674</ele>
        <time>2014-08-10T08:52:05Z</time>
      </trkpt>
      <trkpt lat="43.06851" lon="-0.44352">
        <ele>943.190674</ele>
        <time>2014-08-10T08:52:19Z</time>
      </trkpt>
      <trkpt lat="43.06862" lon="-0.44366">
        <ele>942.229492</ele>
        <time>2014-08-10T08:52:32Z</time>
      </trkpt>
      <trkpt lat="43.06865" lon="-0.44384">
        <ele>941.268066</ele>
        <time>2014-08-10T08:52:45Z</time>
      </trkpt>
      <trkpt lat="43.06864" lon="-0.4439">
        <ele>941.748779</ele>
        <time>2014-08-10T08:52:49Z</time>
      </trkpt>
      <trkpt lat="43.06855" lon="-0.44407">
        <ele>944.1521</ele>
        <time>2014-08-10T08:53:04Z</time>
      </trkpt>
      <trkpt lat="43.06847" lon="-0.44422">
        <ele>946.55542</ele>
        <time>2014-08-10T08:53:18Z</time>
      </trkpt>
      <trkpt lat="43.06842" lon="-0.44434">
        <ele>947.516602</ele>
        <time>2014-08-10T08:53:30Z</time>
      </trkpt>
      <trkpt lat="43.06832" lon="-0.44449">
        <ele>948.477783</ele>
        <time>2014-08-10T08:53:45Z</time>
      </trkpt>
      <trkpt lat="43.06824" lon="-0.44462">
        <ele>950.881104</ele>
        <time>2014-08-10T08:53:59Z</time>
      </trkpt>
      <trkpt lat="43.06815" lon="-0.44477">
        <ele>953.284424</ele>
        <time>2014-08-10T08:54:14Z</time>
      </trkpt>
      <trkpt lat="43.0681" lon="-0.44491">
        <ele>955.687744</ele>
        <time>2014-08-10T08:54:27Z</time>
      </trkpt>
      <trkpt lat="43.0681" lon="-0.44493">
        <ele>955.687744</ele>
        <time>2014-08-10T08:54:29Z</time>
      </trkpt>
      <trkpt lat="43.06809" lon="-0.44495">
        <ele>955.687744</ele>
        <time>2014-08-10T08:54:31Z</time>
      </trkpt>
      <trkpt lat="43.06804" lon="-0.44511">
        <ele>958.091309</ele>
        <time>2014-08-10T08:54:45Z</time>
      </trkpt>
      <trkpt lat="43.06798" lon="-0.44524">
        <ele>960.494385</ele>
        <time>2014-08-10T08:54:59Z</time>
      </trkpt>
      <trkpt lat="43.06797" lon="-0.44529">
        <ele>960.494385</ele>
        <time>2014-08-10T08:55:15Z</time>
      </trkpt>
      <trkpt lat="43.06798" lon="-0.44532">
        <ele>960.013672</ele>
        <time>2014-08-10T08:55:19Z</time>
      </trkpt>
      <trkpt lat="43.06802" lon="-0.44532">
        <ele>960.494385</ele>
        <time>2014-08-10T08:55:25Z</time>
      </trkpt>
      <trkpt lat="43.06818" lon="-0.44528">
        <ele>959.533203</ele>
        <time>2014-08-10T08:55:40Z</time>
      </trkpt>
      <trkpt lat="43.06832" lon="-0.44527">
        <ele>960.975098</ele>
        <time>2014-08-10T08:55:54Z</time>
      </trkpt>
      <trkpt lat="43.06834" lon="-0.44527">
        <ele>961.455811</ele>
        <time>2014-08-10T08:56:23Z</time>
      </trkpt>
      <trkpt lat="43.06828" lon="-0.44529">
        <ele>962.416992</ele>
        <time>2014-08-10T08:56:47Z</time>
      </trkpt>
      <trkpt lat="43.06828" lon="-0.44531">
        <ele>962.416992</ele>
        <time>2014-08-10T08:57:07Z</time>
      </trkpt>
      <trkpt lat="43.06828" lon="-0.44527">
        <ele>962.416992</ele>
        <time>2014-08-10T08:57:30Z</time>
      </trkpt>
      <trkpt lat="43.06827" lon="-0.44524">
        <ele>962.416992</ele>
        <time>2014-08-10T08:57:32Z</time>
      </trkpt>
      <trkpt lat="43.06835" lon="-0.44519">
        <ele>961.455811</ele>
        <time>2014-08-10T08:57:46Z</time>
      </trkpt>
      <trkpt lat="43.06838" lon="-0.44523">
        <ele>963.378418</ele>
        <time>2014-08-10T08:58:28Z</time>
      </trkpt>
      <trkpt lat="43.06838" lon="-0.44526">
        <ele>963.858887</ele>
        <time>2014-08-10T08:58:51Z</time>
      </trkpt>
      <trkpt lat="43.06842" lon="-0.44527">
        <ele>963.858887</ele>
        <time>2014-08-10T08:58:57Z</time>
      </trkpt>
      <trkpt lat="43.06849" lon="-0.44533">
        <ele>962.897705</ele>
        <time>2014-08-10T08:59:11Z</time>
      </trkpt>
      <trkpt lat="43.06852" lon="-0.44534">
        <ele>963.858887</ele>
        <time>2014-08-10T08:59:28Z</time>
      </trkpt>
      <trkpt lat="43.06854" lon="-0.44535">
        <ele>963.858887</ele>
        <time>2014-08-10T08:59:57Z</time>
      </trkpt>
      <trkpt lat="43.0686" lon="-0.44537">
        <ele>964.3396</ele>
        <time>2014-08-10T09:00:02Z</time>
      </trkpt>
      <trkpt lat="43.06868" lon="-0.44549">
        <ele>966.262207</ele>
        <time>2014-08-10T09:00:15Z</time>
      </trkpt>
      <trkpt lat="43.06873" lon="-0.44565">
        <ele>967.704102</ele>
        <time>2014-08-10T09:00:29Z</time>
      </trkpt>
      <trkpt lat="43.06881" lon="-0.44574">
        <ele>971.068848</ele>
        <time>2014-08-10T09:00:43Z</time>
      </trkpt>
      <trkpt lat="43.06893" lon="-0.4458">
        <ele>972.510986</ele>
        <time>2014-08-10T09:00:56Z</time>
      </trkpt>
      <trkpt lat="43.06899" lon="-0.44584">
        <ele>974.914307</ele>
        <time>2014-08-10T09:01:05Z</time>
      </trkpt>
      <trkpt lat="43.06903" lon="-0.44585">
        <ele>976.836914</ele>
        <time>2014-08-10T09:01:15Z</time>
      </trkpt>
      <trkpt lat="43.06908" lon="-0.44592">
        <ele>979.720703</ele>
        <time>2014-08-10T09:01:24Z</time>
      </trkpt>
      <trkpt lat="43.06913" lon="-0.44608">
        <ele>981.162842</ele>
        <time>2014-08-10T09:01:36Z</time>
      </trkpt>
      <trkpt lat="43.06917" lon="-0.4462">
        <ele>984.046631</ele>
        <time>2014-08-10T09:01:46Z</time>
      </trkpt>
      <trkpt lat="43.06921" lon="-0.44626">
        <ele>985.008057</ele>
        <time>2014-08-10T09:01:52Z</time>
      </trkpt>
      <trkpt lat="43.0693" lon="-0.44632">
        <ele>985.969238</ele>
        <time>2014-08-10T09:02:03Z</time>
      </trkpt>
      <trkpt lat="43.06932" lon="-0.44633">
        <ele>987.411133</ele>
        <time>2014-08-10T09:02:05Z</time>
      </trkpt>
      <trkpt lat="43.06938" lon="-0.44642">
        <ele>989.333984</ele>
        <time>2014-08-10T09:02:16Z</time>
      </trkpt>
      <trkpt lat="43.06939" lon="-0.44644">
        <ele>989.333984</ele>
        <time>2014-08-10T09:02:18Z</time>
      </trkpt>
      <trkpt lat="43.06942" lon="-0.44655">
        <ele>992.218018</ele>
        <time>2014-08-10T09:02:30Z</time>
      </trkpt>
      <trkpt lat="43.06947" lon="-0.4466">
        <ele>995.101807</ele>
        <time>2014-08-10T09:02:41Z</time>
      </trkpt>
      <trkpt lat="43.06948" lon="-0.44663">
        <ele>994.621094</ele>
        <time>2014-08-10T09:02:43Z</time>
      </trkpt>
      <trkpt lat="43.06952" lon="-0.44675">
        <ele>996.543945</ele>
        <time>2014-08-10T09:02:53Z</time>
      </trkpt>
      <trkpt lat="43.06961" lon="-0.44681">
        <ele>999.427734</ele>
        <time>2014-08-10T09:03:06Z</time>
      </trkpt>
      <trkpt lat="43.06962" lon="-0.44683">
        <ele>998.947021</ele>
        <time>2014-08-10T09:03:09Z</time>
      </trkpt>
      <trkpt lat="43.06967" lon="-0.44694">
        <ele>1002.311523</ele>
        <time>2014-08-10T09:03:21Z</time>
      </trkpt>
      <trkpt lat="43.06967" lon="-0.44695">
        <ele>1002.311523</ele>
        <time>2014-08-10T09:03:22Z</time>
      </trkpt>
      <trkpt lat="43.0697" lon="-0.44708">
        <ele>1003.753662</ele>
        <time>2014-08-10T09:03:34Z</time>
      </trkpt>
      <trkpt lat="43.06972" lon="-0.44711">
        <ele>1004.715088</ele>
        <time>2014-08-10T09:03:38Z</time>
      </trkpt>
      <trkpt lat="43.06979" lon="-0.44723">
        <ele>1007.599121</ele>
        <time>2014-08-10T09:03:52Z</time>
      </trkpt>
      <trkpt lat="43.06985" lon="-0.44725">
        <ele>1010.963623</ele>
        <time>2014-08-10T09:04:04Z</time>
      </trkpt>
      <trkpt lat="43.0699" lon="-0.44729">
        <ele>1012.88623</ele>
        <time>2014-08-10T09:04:14Z</time>
      </trkpt>
      <trkpt lat="43.06998" lon="-0.44741">
        <ele>1013.366943</ele>
        <time>2014-08-10T09:04:27Z</time>
      </trkpt>
      <trkpt lat="43.06999" lon="-0.44748">
        <ele>1014.328125</ele>
        <time>2014-08-10T09:04:34Z</time>
      </trkpt>
      <trkpt lat="43.07001" lon="-0.44764">
        <ele>1016.250732</ele>
        <time>2014-08-10T09:04:46Z</time>
      </trkpt>
      <trkpt lat="43.07002" lon="-0.44768">
        <ele>1017.212158</ele>
        <time>2014-08-10T09:04:49Z</time>
      </trkpt>
      <trkpt lat="43.07006" lon="-0.44777">
        <ele>1019.134766</ele>
        <time>2014-08-10T09:04:59Z</time>
      </trkpt>
      <trkpt lat="43.07006" lon="-0.44779">
        <ele>1020.096191</ele>
        <time>2014-08-10T09:05:01Z</time>
      </trkpt>
      <trkpt lat="43.07009" lon="-0.44789">
        <ele>1020.576904</ele>
        <time>2014-08-10T09:05:10Z</time>
      </trkpt>
      <trkpt lat="43.07016" lon="-0.44801">
        <ele>1022.018799</ele>
        <time>2014-08-10T09:05:23Z</time>
      </trkpt>
      <trkpt lat="43.07022" lon="-0.44814">
        <ele>1023.941406</ele>
        <time>2014-08-10T09:05:36Z</time>
      </trkpt>
      <trkpt lat="43.07027" lon="-0.4482">
        <ele>1025.864014</ele>
        <time>2014-08-10T09:05:51Z</time>
      </trkpt>
      <trkpt lat="43.07031" lon="-0.44824">
        <ele>1027.306152</ele>
        <time>2014-08-10T09:05:57Z</time>
      </trkpt>
      <trkpt lat="43.07033" lon="-0.44828">
        <ele>1028.748047</ele>
        <time>2014-08-10T09:06:02Z</time>
      </trkpt>
      <trkpt lat="43.07039" lon="-0.44833">
        <ele>1030.189941</ele>
        <time>2014-08-10T09:06:10Z</time>
      </trkpt>
      <trkpt lat="43.07047" lon="-0.44845">
        <ele>1031.151367</ele>
        <time>2014-08-10T09:06:24Z</time>
      </trkpt>
      <trkpt lat="43.07053" lon="-0.44854">
        <ele>1032.593262</ele>
        <time>2014-08-10T09:06:35Z</time>
      </trkpt>
      <trkpt lat="43.07057" lon="-0.4486">
        <ele>1033.07373</ele>
        <time>2014-08-10T09:06:43Z</time>
      </trkpt>
      <trkpt lat="43.07065" lon="-0.44871">
        <ele>1034.035156</ele>
        <time>2014-08-10T09:06:57Z</time>
      </trkpt>
      <trkpt lat="43.07071" lon="-0.44877">
        <ele>1036.919189</ele>
        <time>2014-08-10T09:07:09Z</time>
      </trkpt>
      <trkpt lat="43.07078" lon="-0.44885">
        <ele>1040.283936</ele>
        <time>2014-08-10T09:07:21Z</time>
      </trkpt>
      <trkpt lat="43.0708" lon="-0.44888">
        <ele>1041.72583</ele>
        <time>2014-08-10T09:07:26Z</time>
      </trkpt>
      <trkpt lat="43.07088" lon="-0.44893">
        <ele>1043.648438</ele>
        <time>2014-08-10T09:07:38Z</time>
      </trkpt>
      <trkpt lat="43.0709" lon="-0.44891">
        <ele>1044.12915</ele>
        <time>2014-08-10T09:08:15Z</time>
      </trkpt>
      <trkpt lat="43.07088" lon="-0.44892">
        <ele>1041.245117</ele>
        <time>2014-08-10T09:08:24Z</time>
      </trkpt>
      <trkpt lat="43.07088" lon="-0.44894">
        <ele>1045.571045</ele>
        <time>2014-08-10T09:08:33Z</time>
      </trkpt>
      <trkpt lat="43.07082" lon="-0.4489">
        <ele>1043.648438</ele>
        <time>2014-08-10T09:09:05Z</time>
      </trkpt>
      <trkpt lat="43.07087" lon="-0.44896">
        <ele>1044.12915</ele>
        <time>2014-08-10T09:09:26Z</time>
      </trkpt>
      <trkpt lat="43.07096" lon="-0.44899">
        <ele>1044.609619</ele>
        <time>2014-08-10T09:09:55Z</time>
      </trkpt>
      <trkpt lat="43.07089" lon="-0.44902">
        <ele>1044.609619</ele>
        <time>2014-08-10T09:10:28Z</time>
      </trkpt>
      <trkpt lat="43.07093" lon="-0.44903">
        <ele>1047.012939</ele>
        <time>2014-08-10T09:11:21Z</time>
      </trkpt>
      <trkpt lat="43.07099" lon="-0.44906">
        <ele>1047.974365</ele>
        <time>2014-08-10T09:11:30Z</time>
      </trkpt>
      <trkpt lat="43.07104" lon="-0.4491">
        <ele>1049.41626</ele>
        <time>2014-08-10T09:11:40Z</time>
      </trkpt>
      <trkpt lat="43.07109" lon="-0.44915">
        <ele>1050.377686</ele>
        <time>2014-08-10T09:11:50Z</time>
      </trkpt>
      <trkpt lat="43.07112" lon="-0.4492">
        <ele>1052.300293</ele>
        <time>2014-08-10T09:12:01Z</time>
      </trkpt>
      <trkpt lat="43.07119" lon="-0.44922">
        <ele>1054.223145</ele>
        <time>2014-08-10T09:12:12Z</time>
      </trkpt>
      <trkpt lat="43.07123" lon="-0.44922">
        <ele>1055.665039</ele>
        <time>2014-08-10T09:12:21Z</time>
      </trkpt>
      <trkpt lat="43.07127" lon="-0.44931">
        <ele>1058.068359</ele>
        <time>2014-08-10T09:12:30Z</time>
      </trkpt>
      <trkpt lat="43.07131" lon="-0.44936">
        <ele>1059.029541</ele>
        <time>2014-08-10T09:12:39Z</time>
      </trkpt>
      <trkpt lat="43.07134" lon="-0.44943">
        <ele>1059.510254</ele>
        <time>2014-08-10T09:12:48Z</time>
      </trkpt>
      <trkpt lat="43.0714" lon="-0.44949">
        <ele>1061.432861</ele>
        <time>2014-08-10T09:12:58Z</time>
      </trkpt>
      <trkpt lat="43.07144" lon="-0.44952">
        <ele>1062.874756</ele>
        <time>2014-08-10T09:13:07Z</time>
      </trkpt>
      <trkpt lat="43.07148" lon="-0.44958">
        <ele>1064.797363</ele>
        <time>2014-08-10T09:13:16Z</time>
      </trkpt>
      <trkpt lat="43.07153" lon="-0.44965">
        <ele>1065.278076</ele>
        <time>2014-08-10T09:13:25Z</time>
      </trkpt>
      <trkpt lat="43.07155" lon="-0.44968">
        <ele>1065.278076</ele>
        <time>2014-08-10T09:13:29Z</time>
      </trkpt>
      <trkpt lat="43.07161" lon="-0.44972">
        <ele>1067.200684</ele>
        <time>2014-08-10T09:13:41Z</time>
      </trkpt>
      <trkpt lat="43.07166" lon="-0.4498">
        <ele>1069.604248</ele>
        <time>2014-08-10T09:13:53Z</time>
      </trkpt>
      <trkpt lat="43.07169" lon="-0.44984">
        <ele>1071.046143</ele>
        <time>2014-08-10T09:13:58Z</time>
      </trkpt>
      <trkpt lat="43.07174" lon="-0.44996">
        <ele>1072.488037</ele>
        <time>2014-08-10T09:14:10Z</time>
      </trkpt>
      <trkpt lat="43.07179" lon="-0.45003">
        <ele>1074.891357</ele>
        <time>2014-08-10T09:14:18Z</time>
      </trkpt>
      <trkpt lat="43.07184" lon="-0.45011">
        <ele>1076.333252</ele>
        <time>2014-08-10T09:14:33Z</time>
      </trkpt>
      <trkpt lat="43.07185" lon="-0.45015">
        <ele>1076.333252</ele>
        <time>2014-08-10T09:14:44Z</time>
      </trkpt>
      <trkpt lat="43.0719" lon="-0.45018">
        <ele>1078.255859</ele>
        <time>2014-08-10T09:14:56Z</time>
      </trkpt>
      <trkpt lat="43.07194" lon="-0.45023">
        <ele>1079.217041</ele>
        <time>2014-08-10T09:15:09Z</time>
      </trkpt>
      <trkpt lat="43.07196" lon="-0.45029">
        <ele>1081.139893</ele>
        <time>2014-08-10T09:15:19Z</time>
      </trkpt>
      <trkpt lat="43.07197" lon="-0.45041">
        <ele>1081.620361</ele>
        <time>2014-08-10T09:15:30Z</time>
      </trkpt>
      <trkpt lat="43.07198" lon="-0.45045">
        <ele>1083.062256</ele>
        <time>2014-08-10T09:15:34Z</time>
      </trkpt>
      <trkpt lat="43.07196" lon="-0.45054">
        <ele>1083.542969</ele>
        <time>2014-08-10T09:15:43Z</time>
      </trkpt>
      <trkpt lat="43.07195" lon="-0.45064">
        <ele>1085.946533</ele>
        <time>2014-08-10T09:15:56Z</time>
      </trkpt>
      <trkpt lat="43.07197" lon="-0.45071">
        <ele>1085.946533</ele>
        <time>2014-08-10T09:16:04Z</time>
      </trkpt>
      <trkpt lat="43.07197" lon="-0.45072">
        <ele>1087.388428</ele>
        <time>2014-08-10T09:16:06Z</time>
      </trkpt>
      <trkpt lat="43.07196" lon="-0.45079">
        <ele>1087.388428</ele>
        <time>2014-08-10T09:16:12Z</time>
      </trkpt>
      <trkpt lat="43.07195" lon="-0.45084">
        <ele>1087.388428</ele>
        <time>2014-08-10T09:16:16Z</time>
      </trkpt>
      <trkpt lat="43.07196" lon="-0.45102">
        <ele>1088.830566</ele>
        <time>2014-08-10T09:16:30Z</time>
      </trkpt>
      <trkpt lat="43.07196" lon="-0.45108">
        <ele>1089.791748</ele>
        <time>2014-08-10T09:16:35Z</time>
      </trkpt>
      <trkpt lat="43.07195" lon="-0.45112">
        <ele>1090.272461</ele>
        <time>2014-08-10T09:16:38Z</time>
      </trkpt>
      <trkpt lat="43.07196" lon="-0.45126">
        <ele>1090.272461</ele>
        <time>2014-08-10T09:16:50Z</time>
      </trkpt>
      <trkpt lat="43.07197" lon="-0.45129">
        <ele>1091.233643</ele>
        <time>2014-08-10T09:16:53Z</time>
      </trkpt>
      <trkpt lat="43.07198" lon="-0.45136">
        <ele>1092.195068</ele>
        <time>2014-08-10T09:17:01Z</time>
      </trkpt>
      <trkpt lat="43.072" lon="-0.4515">
        <ele>1092.675781</ele>
        <time>2014-08-10T09:17:14Z</time>
      </trkpt>
      <trkpt lat="43.07201" lon="-0.45161">
        <ele>1094.117676</ele>
        <time>2014-08-10T09:17:26Z</time>
      </trkpt>
      <trkpt lat="43.07202" lon="-0.45172">
        <ele>1096.040283</ele>
        <time>2014-08-10T09:17:37Z</time>
      </trkpt>
      <trkpt lat="43.07205" lon="-0.45184">
        <ele>1096.520996</ele>
        <time>2014-08-10T09:17:50Z</time>
      </trkpt>
      <trkpt lat="43.07209" lon="-0.45191">
        <ele>1098.443359</ele>
        <time>2014-08-10T09:18:00Z</time>
      </trkpt>
      <trkpt lat="43.07212" lon="-0.45199">
        <ele>1099.885498</ele>
        <time>2014-08-10T09:18:09Z</time>
      </trkpt>
      <trkpt lat="43.07214" lon="-0.45209">
        <ele>1100.846924</ele>
        <time>2014-08-10T09:18:18Z</time>
      </trkpt>
      <trkpt lat="43.07218" lon="-0.45218">
        <ele>1100.846924</ele>
        <time>2014-08-10T09:18:29Z</time>
      </trkpt>
      <trkpt lat="43.07219" lon="-0.4522">
        <ele>1101.80835</ele>
        <time>2014-08-10T09:18:31Z</time>
      </trkpt>
      <trkpt lat="43.07224" lon="-0.45231">
        <ele>1102.769531</ele>
        <time>2014-08-10T09:18:42Z</time>
      </trkpt>
      <trkpt lat="43.07228" lon="-0.45246">
        <ele>1105.172852</ele>
        <time>2014-08-10T09:18:54Z</time>
      </trkpt>
      <trkpt lat="43.07232" lon="-0.45262">
        <ele>1105.172852</ele>
        <time>2014-08-10T09:19:07Z</time>
      </trkpt>
      <trkpt lat="43.07235" lon="-0.45277">
        <ele>1105.172852</ele>
        <time>2014-08-10T09:19:19Z</time>
      </trkpt>
      <trkpt lat="43.07239" lon="-0.45289">
        <ele>1106.134033</ele>
        <time>2014-08-10T09:19:29Z</time>
      </trkpt>
      <trkpt lat="43.07245" lon="-0.45304">
        <ele>1106.134033</ele>
        <time>2014-08-10T09:19:41Z</time>
      </trkpt>
      <trkpt lat="43.07246" lon="-0.45308">
        <ele>1106.614746</ele>
        <time>2014-08-10T09:19:45Z</time>
      </trkpt>
      <trkpt lat="43.07254" lon="-0.45322">
        <ele>1107.095459</ele>
        <time>2014-08-10T09:19:58Z</time>
      </trkpt>
      <trkpt lat="43.07257" lon="-0.45332">
        <ele>1107.095459</ele>
        <time>2014-08-10T09:20:08Z</time>
      </trkpt>
      <trkpt lat="43.07261" lon="-0.45342">
        <ele>1107.095459</ele>
        <time>2014-08-10T09:20:19Z</time>
      </trkpt>
      <trkpt lat="43.07265" lon="-0.45353">
        <ele>1106.614746</ele>
        <time>2014-08-10T09:20:29Z</time>
      </trkpt>
      <trkpt lat="43.0727" lon="-0.45365">
        <ele>1106.134033</ele>
        <time>2014-08-10T09:20:39Z</time>
      </trkpt>
      <trkpt lat="43.07279" lon="-0.45379">
        <ele>1105.653564</ele>
        <time>2014-08-10T09:20:52Z</time>
      </trkpt>
      <trkpt lat="43.07288" lon="-0.45394">
        <ele>1106.614746</ele>
        <time>2014-08-10T09:21:05Z</time>
      </trkpt>
      <trkpt lat="43.07298" lon="-0.45408">
        <ele>1107.576172</ele>
        <time>2014-08-10T09:21:18Z</time>
      </trkpt>
      <trkpt lat="43.07305" lon="-0.45424">
        <ele>1108.537354</ele>
        <time>2014-08-10T09:21:31Z</time>
      </trkpt>
      <trkpt lat="43.07307" lon="-0.45441">
        <ele>1109.018066</ele>
        <time>2014-08-10T09:21:45Z</time>
      </trkpt>
      <trkpt lat="43.0731" lon="-0.4545">
        <ele>1109.498779</ele>
        <time>2014-08-10T09:21:52Z</time>
      </trkpt>
      <trkpt lat="43.07309" lon="-0.45464">
        <ele>1111.9021</ele>
        <time>2014-08-10T09:22:03Z</time>
      </trkpt>
      <trkpt lat="43.07309" lon="-0.45466">
        <ele>1112.382568</ele>
        <time>2014-08-10T09:22:05Z</time>
      </trkpt>
      <trkpt lat="43.07309" lon="-0.45474">
        <ele>1114.305176</ele>
        <time>2014-08-10T09:22:15Z</time>
      </trkpt>
      <trkpt lat="43.07311" lon="-0.45482">
        <ele>1114.785889</ele>
        <time>2014-08-10T09:22:24Z</time>
      </trkpt>
      <trkpt lat="43.07313" lon="-0.45489">
        <ele>1115.266602</ele>
        <time>2014-08-10T09:22:33Z</time>
      </trkpt>
      <trkpt lat="43.07314" lon="-0.45489">
        <ele>1115.266602</ele>
        <time>2014-08-10T09:23:06Z</time>
      </trkpt>
      <trkpt lat="43.07313" lon="-0.45492">
        <ele>1116.228027</ele>
        <time>2014-08-10T09:23:36Z</time>
      </trkpt>
      <trkpt lat="43.07315" lon="-0.45499">
        <ele>1116.70874</ele>
        <time>2014-08-10T09:23:45Z</time>
      </trkpt>
      <trkpt lat="43.07319" lon="-0.45512">
        <ele>1117.189453</ele>
        <time>2014-08-10T09:23:55Z</time>
      </trkpt>
      <trkpt lat="43.07321" lon="-0.45521">
        <ele>1118.631348</ele>
        <time>2014-08-10T09:24:03Z</time>
      </trkpt>
      <trkpt lat="43.07325" lon="-0.45528">
        <ele>1119.592773</ele>
        <time>2014-08-10T09:24:14Z</time>
      </trkpt>
      <trkpt lat="43.07326" lon="-0.45535">
        <ele>1121.515137</ele>
        <time>2014-08-10T09:24:23Z</time>
      </trkpt>
      <trkpt lat="43.07326" lon="-0.45536">
        <ele>1121.034668</ele>
        <time>2014-08-10T09:24:24Z</time>
      </trkpt>
      <trkpt lat="43.0733" lon="-0.45547">
        <ele>1122.476563</ele>
        <time>2014-08-10T09:24:35Z</time>
      </trkpt>
      <trkpt lat="43.07333" lon="-0.45555">
        <ele>1123.918457</ele>
        <time>2014-08-10T09:24:45Z</time>
      </trkpt>
      <trkpt lat="43.07335" lon="-0.45563">
        <ele>1125.841064</ele>
        <time>2014-08-10T09:24:55Z</time>
      </trkpt>
      <trkpt lat="43.07338" lon="-0.45568">
        <ele>1127.283203</ele>
        <time>2014-08-10T09:25:03Z</time>
      </trkpt>
      <trkpt lat="43.07337" lon="-0.45572">
        <ele>1127.283203</ele>
        <time>2014-08-10T09:25:09Z</time>
      </trkpt>
      <trkpt lat="43.0734" lon="-0.45581">
        <ele>1128.244385</ele>
        <time>2014-08-10T09:25:20Z</time>
      </trkpt>
      <trkpt lat="43.07342" lon="-0.4559">
        <ele>1128.725098</ele>
        <time>2014-08-10T09:25:30Z</time>
      </trkpt>
      <trkpt lat="43.07343" lon="-0.45593">
        <ele>1129.686279</ele>
        <time>2014-08-10T09:25:32Z</time>
      </trkpt>
      <trkpt lat="43.07344" lon="-0.45603">
        <ele>1131.608887</ele>
        <time>2014-08-10T09:25:44Z</time>
      </trkpt>
      <trkpt lat="43.07347" lon="-0.45611">
        <ele>1132.570557</ele>
        <time>2014-08-10T09:25:54Z</time>
      </trkpt>
      <trkpt lat="43.07347" lon="-0.45612">
        <ele>1133.051025</ele>
        <time>2014-08-10T09:26:02Z</time>
      </trkpt>
      <trkpt lat="43.07348" lon="-0.45618">
        <ele>1134.493164</ele>
        <time>2014-08-10T09:26:09Z</time>
      </trkpt>
      <trkpt lat="43.07351" lon="-0.45631">
        <ele>1136.89624</ele>
        <time>2014-08-10T09:26:21Z</time>
      </trkpt>
      <trkpt lat="43.07352" lon="-0.45645">
        <ele>1137.857666</ele>
        <time>2014-08-10T09:26:35Z</time>
      </trkpt>
      <trkpt lat="43.07352" lon="-0.45649">
        <ele>1137.857666</ele>
        <time>2014-08-10T09:26:49Z</time>
      </trkpt>
      <trkpt lat="43.07353" lon="-0.45658">
        <ele>1138.819092</ele>
        <time>2014-08-10T09:27:10Z</time>
      </trkpt>
      <trkpt lat="43.07354" lon="-0.45659">
        <ele>1139.780273</ele>
        <time>2014-08-10T09:27:12Z</time>
      </trkpt>
      <trkpt lat="43.07355" lon="-0.45672">
        <ele>1141.222168</ele>
        <time>2014-08-10T09:27:25Z</time>
      </trkpt>
      <trkpt lat="43.07359" lon="-0.45689">
        <ele>1142.183594</ele>
        <time>2014-08-10T09:27:37Z</time>
      </trkpt>
      <trkpt lat="43.0736" lon="-0.45699">
        <ele>1142.664307</ele>
        <time>2014-08-10T09:27:48Z</time>
      </trkpt>
      <trkpt lat="43.07362" lon="-0.4571">
        <ele>1145.067383</ele>
        <time>2014-08-10T09:27:58Z</time>
      </trkpt>
      <trkpt lat="43.07364" lon="-0.45718">
        <ele>1146.509521</ele>
        <time>2014-08-10T09:28:10Z</time>
      </trkpt>
      <trkpt lat="43.07366" lon="-0.45726">
        <ele>1147.470703</ele>
        <time>2014-08-10T09:28:20Z</time>
      </trkpt>
      <trkpt lat="43.07367" lon="-0.45735">
        <ele>1147.951416</ele>
        <time>2014-08-10T09:28:29Z</time>
      </trkpt>
      <trkpt lat="43.0737" lon="-0.4574">
        <ele>1149.393555</ele>
        <time>2014-08-10T09:28:41Z</time>
      </trkpt>
      <trkpt lat="43.0737" lon="-0.4574">
        <ele>1149.393555</ele>
        <time>2014-08-10T09:28:42Z</time>
      </trkpt>
      <trkpt lat="43.07373" lon="-0.45745">
        <ele>1151.316162</ele>
        <time>2014-08-10T09:28:56Z</time>
      </trkpt>
      <trkpt lat="43.07373" lon="-0.45747">
        <ele>1151.796875</ele>
        <time>2014-08-10T09:28:58Z</time>
      </trkpt>
      <trkpt lat="43.07372" lon="-0.45753">
        <ele>1151.316162</ele>
        <time>2014-08-10T09:29:04Z</time>
      </trkpt>
      <trkpt lat="43.07372" lon="-0.45764">
        <ele>1153.23877</ele>
        <time>2014-08-10T09:29:17Z</time>
      </trkpt>
      <trkpt lat="43.07371" lon="-0.4577">
        <ele>1154.200195</ele>
        <time>2014-08-10T09:29:32Z</time>
      </trkpt>
      <trkpt lat="43.07369" lon="-0.45779">
        <ele>1153.719482</ele>
        <time>2014-08-10T09:29:43Z</time>
      </trkpt>
      <trkpt lat="43.07369" lon="-0.45781">
        <ele>1154.200195</ele>
        <time>2014-08-10T09:29:45Z</time>
      </trkpt>
      <trkpt lat="43.07368" lon="-0.45791">
        <ele>1154.680664</ele>
        <time>2014-08-10T09:29:56Z</time>
      </trkpt>
      <trkpt lat="43.07366" lon="-0.45805">
        <ele>1154.680664</ele>
        <time>2014-08-10T09:30:13Z</time>
      </trkpt>
      <trkpt lat="43.07367" lon="-0.45825">
        <ele>1156.603271</ele>
        <time>2014-08-10T09:30:29Z</time>
      </trkpt>
      <trkpt lat="43.07368" lon="-0.45836">
        <ele>1156.603271</ele>
        <time>2014-08-10T09:30:40Z</time>
      </trkpt>
      <trkpt lat="43.07369" lon="-0.45838">
        <ele>1156.603271</ele>
        <time>2014-08-10T09:30:42Z</time>
      </trkpt>
      <trkpt lat="43.07369" lon="-0.45841">
        <ele>1156.603271</ele>
        <time>2014-08-10T09:30:45Z</time>
      </trkpt>
      <trkpt lat="43.07369" lon="-0.45853">
        <ele>1157.564697</ele>
        <time>2014-08-10T09:30:55Z</time>
      </trkpt>
      <trkpt lat="43.07369" lon="-0.45861">
        <ele>1159.006592</ele>
        <time>2014-08-10T09:31:04Z</time>
      </trkpt>
      <trkpt lat="43.07371" lon="-0.4587">
        <ele>1160.929199</ele>
        <time>2014-08-10T09:31:14Z</time>
      </trkpt>
      <trkpt lat="43.07369" lon="-0.45879">
        <ele>1160.929199</ele>
        <time>2014-08-10T09:31:23Z</time>
      </trkpt>
      <trkpt lat="43.07371" lon="-0.4589">
        <ele>1161.409912</ele>
        <time>2014-08-10T09:31:36Z</time>
      </trkpt>
      <trkpt lat="43.0737" lon="-0.459">
        <ele>1162.371094</ele>
        <time>2014-08-10T09:31:44Z</time>
      </trkpt>
      <trkpt lat="43.0737" lon="-0.4591">
        <ele>1163.812988</ele>
        <time>2014-08-10T09:31:53Z</time>
      </trkpt>
      <trkpt lat="43.07369" lon="-0.4592">
        <ele>1164.293945</ele>
        <time>2014-08-10T09:32:02Z</time>
      </trkpt>
      <trkpt lat="43.07369" lon="-0.45925">
        <ele>1163.812988</ele>
        <time>2014-08-10T09:32:07Z</time>
      </trkpt>
      <trkpt lat="43.07369" lon="-0.45932">
        <ele>1164.774658</ele>
        <time>2014-08-10T09:32:13Z</time>
      </trkpt>
      <trkpt lat="43.0737" lon="-0.45939">
        <ele>1165.255371</ele>
        <time>2014-08-10T09:32:18Z</time>
      </trkpt>
      <trkpt lat="43.07371" lon="-0.45943">
        <ele>1165.255371</ele>
        <time>2014-08-10T09:32:21Z</time>
      </trkpt>
      <trkpt lat="43.07371" lon="-0.45954">
        <ele>1165.736084</ele>
        <time>2014-08-10T09:32:31Z</time>
      </trkpt>
      <trkpt lat="43.0737" lon="-0.4596">
        <ele>1167.177979</ele>
        <time>2014-08-10T09:32:36Z</time>
      </trkpt>
      <trkpt lat="43.07371" lon="-0.45964">
        <ele>1167.658447</ele>
        <time>2014-08-10T09:32:39Z</time>
      </trkpt>
      <trkpt lat="43.0737" lon="-0.45982">
        <ele>1168.619873</ele>
        <time>2014-08-10T09:32:51Z</time>
      </trkpt>
      <trkpt lat="43.07368" lon="-0.45989">
        <ele>1169.100586</ele>
        <time>2014-08-10T09:32:57Z</time>
      </trkpt>
      <trkpt lat="43.07368" lon="-0.46">
        <ele>1171.023193</ele>
        <time>2014-08-10T09:33:08Z</time>
      </trkpt>
      <trkpt lat="43.07368" lon="-0.4601">
        <ele>1171.503662</ele>
        <time>2014-08-10T09:33:17Z</time>
      </trkpt>
      <trkpt lat="43.07366" lon="-0.46014">
        <ele>1171.503662</ele>
        <time>2014-08-10T09:33:22Z</time>
      </trkpt>
      <trkpt lat="43.07363" lon="-0.46023">
        <ele>1173.426514</ele>
        <time>2014-08-10T09:33:32Z</time>
      </trkpt>
      <trkpt lat="43.07363" lon="-0.4603">
        <ele>1174.868408</ele>
        <time>2014-08-10T09:33:41Z</time>
      </trkpt>
      <trkpt lat="43.07366" lon="-0.46032">
        <ele>1176.791016</ele>
        <time>2014-08-10T09:33:51Z</time>
      </trkpt>
      <trkpt lat="43.07369" lon="-0.46039">
        <ele>1177.752197</ele>
        <time>2014-08-10T09:34:01Z</time>
      </trkpt>
      <trkpt lat="43.07371" lon="-0.46048">
        <ele>1178.23291</ele>
        <time>2014-08-10T09:34:13Z</time>
      </trkpt>
      <trkpt lat="43.07372" lon="-0.46058">
        <ele>1179.674805</ele>
        <time>2014-08-10T09:34:23Z</time>
      </trkpt>
      <trkpt lat="43.07374" lon="-0.46074">
        <ele>1181.117188</ele>
        <time>2014-08-10T09:34:37Z</time>
      </trkpt>
      <trkpt lat="43.07377" lon="-0.46088">
        <ele>1182.078369</ele>
        <time>2014-08-10T09:34:51Z</time>
      </trkpt>
      <trkpt lat="43.07379" lon="-0.46103">
        <ele>1183.039551</ele>
        <time>2014-08-10T09:35:04Z</time>
      </trkpt>
      <trkpt lat="43.07382" lon="-0.46116">
        <ele>1184.962402</ele>
        <time>2014-08-10T09:35:16Z</time>
      </trkpt>
      <trkpt lat="43.07384" lon="-0.4613">
        <ele>1185.923584</ele>
        <time>2014-08-10T09:35:29Z</time>
      </trkpt>
      <trkpt lat="43.07387" lon="-0.46144">
        <ele>1186.884766</ele>
        <time>2014-08-10T09:35:42Z</time>
      </trkpt>
      <trkpt lat="43.0739" lon="-0.4616">
        <ele>1187.846191</ele>
        <time>2014-08-10T09:35:56Z</time>
      </trkpt>
      <trkpt lat="43.07392" lon="-0.46175">
        <ele>1188.807617</ele>
        <time>2014-08-10T09:36:09Z</time>
      </trkpt>
      <trkpt lat="43.07394" lon="-0.46187">
        <ele>1189.288086</ele>
        <time>2014-08-10T09:36:19Z</time>
      </trkpt>
      <trkpt lat="43.07397" lon="-0.46198">
        <ele>1189.768799</ele>
        <time>2014-08-10T09:36:31Z</time>
      </trkpt>
      <trkpt lat="43.07398" lon="-0.46209">
        <ele>1189.768799</ele>
        <time>2014-08-10T09:36:44Z</time>
      </trkpt>
      <trkpt lat="43.07401" lon="-0.46225">
        <ele>1189.288086</ele>
        <time>2014-08-10T09:36:58Z</time>
      </trkpt>
      <trkpt lat="43.07405" lon="-0.4624">
        <ele>1189.768799</ele>
        <time>2014-08-10T09:37:13Z</time>
      </trkpt>
      <trkpt lat="43.07412" lon="-0.46252">
        <ele>1190.249512</ele>
        <time>2014-08-10T09:37:26Z</time>
      </trkpt>
      <trkpt lat="43.07421" lon="-0.46267">
        <ele>1191.210693</ele>
        <time>2014-08-10T09:37:41Z</time>
      </trkpt>
      <trkpt lat="43.07431" lon="-0.46273">
        <ele>1192.172119</ele>
        <time>2014-08-10T09:37:55Z</time>
      </trkpt>
      <trkpt lat="43.07434" lon="-0.46276">
        <ele>1193.133301</ele>
        <time>2014-08-10T09:38:01Z</time>
      </trkpt>
      <trkpt lat="43.07444" lon="-0.46284">
        <ele>1194.094727</ele>
        <time>2014-08-10T09:38:15Z</time>
      </trkpt>
      <trkpt lat="43.07449" lon="-0.46289">
        <ele>1194.575195</ele>
        <time>2014-08-10T09:38:21Z</time>
      </trkpt>
      <trkpt lat="43.07459" lon="-0.463">
        <ele>1194.575195</ele>
        <time>2014-08-10T09:38:34Z</time>
      </trkpt>
      <trkpt lat="43.07466" lon="-0.46307">
        <ele>1196.498291</ele>
        <time>2014-08-10T09:38:47Z</time>
      </trkpt>
      <trkpt lat="43.07471" lon="-0.46312">
        <ele>1196.498291</ele>
        <time>2014-08-10T09:39:00Z</time>
      </trkpt>
      <trkpt lat="43.07474" lon="-0.46315">
        <ele>1196.017578</ele>
        <time>2014-08-10T09:39:08Z</time>
      </trkpt>
      <trkpt lat="43.07478" lon="-0.46317">
        <ele>1196.97876</ele>
        <time>2014-08-10T09:39:29Z</time>
      </trkpt>
      <trkpt lat="43.07486" lon="-0.46325">
        <ele>1196.97876</ele>
        <time>2014-08-10T09:39:42Z</time>
      </trkpt>
      <trkpt lat="43.07494" lon="-0.46332">
        <ele>1196.97876</ele>
        <time>2014-08-10T09:39:53Z</time>
      </trkpt>
      <trkpt lat="43.07505" lon="-0.46341">
        <ele>1198.420654</ele>
        <time>2014-08-10T09:40:09Z</time>
      </trkpt>
      <trkpt lat="43.07512" lon="-0.46345">
        <ele>1198.901367</ele>
        <time>2014-08-10T09:40:22Z</time>
      </trkpt>
      <trkpt lat="43.0752" lon="-0.46355">
        <ele>1199.38208</ele>
        <time>2014-08-10T09:40:36Z</time>
      </trkpt>
      <trkpt lat="43.07529" lon="-0.46362">
        <ele>1200.343506</ele>
        <time>2014-08-10T09:40:48Z</time>
      </trkpt>
      <trkpt lat="43.07536" lon="-0.46367">
        <ele>1201.304688</ele>
        <time>2014-08-10T09:41:01Z</time>
      </trkpt>
      <trkpt lat="43.07543" lon="-0.46375">
        <ele>1202.265869</ele>
        <time>2014-08-10T09:41:17Z</time>
      </trkpt>
      <trkpt lat="43.07551" lon="-0.46381">
        <ele>1203.708008</ele>
        <time>2014-08-10T09:41:30Z</time>
      </trkpt>
      <trkpt lat="43.07558" lon="-0.46387">
        <ele>1203.708008</ele>
        <time>2014-08-10T09:41:41Z</time>
      </trkpt>
      <trkpt lat="43.07567" lon="-0.46397">
        <ele>1204.669189</ele>
        <time>2014-08-10T09:41:54Z</time>
      </trkpt>
      <trkpt lat="43.07571" lon="-0.464">
        <ele>1204.669189</ele>
        <time>2014-08-10T09:42:00Z</time>
      </trkpt>
      <trkpt lat="43.07577" lon="-0.46408">
        <ele>1204.669189</ele>
        <time>2014-08-10T09:42:08Z</time>
      </trkpt>
      <trkpt lat="43.07585" lon="-0.46415">
        <ele>1205.149902</ele>
        <time>2014-08-10T09:42:20Z</time>
      </trkpt>
      <trkpt lat="43.07593" lon="-0.46423">
        <ele>1205.630615</ele>
        <time>2014-08-10T09:42:32Z</time>
      </trkpt>
      <trkpt lat="43.07602" lon="-0.46433">
        <ele>1204.669189</ele>
        <time>2014-08-10T09:42:46Z</time>
      </trkpt>
      <trkpt lat="43.07612" lon="-0.4644">
        <ele>1206.111084</ele>
        <time>2014-08-10T09:43:00Z</time>
      </trkpt>
      <trkpt lat="43.0762" lon="-0.46451">
        <ele>1206.591797</ele>
        <time>2014-08-10T09:43:13Z</time>
      </trkpt>
      <trkpt lat="43.07627" lon="-0.46457">
        <ele>1208.033936</ele>
        <time>2014-08-10T09:43:24Z</time>
      </trkpt>
      <trkpt lat="43.0763" lon="-0.46463">
        <ele>1208.514404</ele>
        <time>2014-08-10T09:43:36Z</time>
      </trkpt>
      <trkpt lat="43.07639" lon="-0.46469">
        <ele>1209.956299</ele>
        <time>2014-08-10T09:43:50Z</time>
      </trkpt>
      <trkpt lat="43.07648" lon="-0.46474">
        <ele>1211.398438</ele>
        <time>2014-08-10T09:44:04Z</time>
      </trkpt>
      <trkpt lat="43.07655" lon="-0.46482">
        <ele>1211.87915</ele>
        <time>2014-08-10T09:44:18Z</time>
      </trkpt>
      <trkpt lat="43.07662" lon="-0.4649">
        <ele>1214.282471</ele>
        <time>2014-08-10T09:44:31Z</time>
      </trkpt>
      <trkpt lat="43.07669" lon="-0.46499">
        <ele>1215.243896</ele>
        <time>2014-08-10T09:44:43Z</time>
      </trkpt>
      <trkpt lat="43.07671" lon="-0.46513">
        <ele>1215.724609</ele>
        <time>2014-08-10T09:44:57Z</time>
      </trkpt>
      <trkpt lat="43.07674" lon="-0.46528">
        <ele>1216.685791</ele>
        <time>2014-08-10T09:45:10Z</time>
      </trkpt>
      <trkpt lat="43.07674" lon="-0.4653">
        <ele>1217.166504</ele>
        <time>2014-08-10T09:45:12Z</time>
      </trkpt>
      <trkpt lat="43.07678" lon="-0.4654">
        <ele>1219.089111</ele>
        <time>2014-08-10T09:45:25Z</time>
      </trkpt>
      <trkpt lat="43.07681" lon="-0.46553">
        <ele>1219.569824</ele>
        <time>2014-08-10T09:45:37Z</time>
      </trkpt>
      <trkpt lat="43.07688" lon="-0.46561">
        <ele>1220.531006</ele>
        <time>2014-08-10T09:45:55Z</time>
      </trkpt>
      <trkpt lat="43.07689" lon="-0.4656">
        <ele>1223.895508</ele>
        <time>2014-08-10T09:46:05Z</time>
      </trkpt>
      <trkpt lat="43.0769" lon="-0.46553">
        <ele>1225.337402</ele>
        <time>2014-08-10T09:46:15Z</time>
      </trkpt>
      <trkpt lat="43.07693" lon="-0.4655">
        <ele>1226.779541</ele>
        <time>2014-08-10T09:46:24Z</time>
      </trkpt>
      <trkpt lat="43.07698" lon="-0.46548">
        <ele>1228.22168</ele>
        <time>2014-08-10T09:46:35Z</time>
      </trkpt>
      <trkpt lat="43.07701" lon="-0.46545">
        <ele>1232.066895</ele>
        <time>2014-08-10T09:46:45Z</time>
      </trkpt>
      <trkpt lat="43.07709" lon="-0.46555">
        <ele>1233.508789</ele>
        <time>2014-08-10T09:46:56Z</time>
      </trkpt>
      <trkpt lat="43.07717" lon="-0.46563">
        <ele>1235.431396</ele>
        <time>2014-08-10T09:47:08Z</time>
      </trkpt>
      <trkpt lat="43.0772" lon="-0.46564">
        <ele>1238.796143</ele>
        <time>2014-08-10T09:47:25Z</time>
      </trkpt>
      <trkpt lat="43.0772" lon="-0.46564">
        <ele>1238.796143</ele>
        <time>2014-08-10T09:47:26Z</time>
      </trkpt>
      <trkpt lat="43.07723" lon="-0.4656">
        <ele>1242.160645</ele>
        <time>2014-08-10T09:47:41Z</time>
      </trkpt>
      <trkpt lat="43.07728" lon="-0.46564">
        <ele>1241.679932</ele>
        <time>2014-08-10T09:48:00Z</time>
      </trkpt>
      <trkpt lat="43.07728" lon="-0.46565">
        <ele>1237.834717</ele>
        <time>2014-08-10T09:48:10Z</time>
      </trkpt>
      <trkpt lat="43.07728" lon="-0.46566">
        <ele>1238.796143</ele>
        <time>2014-08-10T09:48:11Z</time>
      </trkpt>
      <trkpt lat="43.07728" lon="-0.46566">
        <ele>1242.160645</ele>
        <time>2014-08-10T09:48:12Z</time>
      </trkpt>
      <trkpt lat="43.07728" lon="-0.46566">
        <ele>1245.044678</ele>
        <time>2014-08-10T09:48:13Z</time>
      </trkpt>
      <trkpt lat="43.07728" lon="-0.46566">
        <ele>1243.121826</ele>
        <time>2014-08-10T09:48:14Z</time>
      </trkpt>
      <trkpt lat="43.07728" lon="-0.46567">
        <ele>1242.160645</ele>
        <time>2014-08-10T09:48:20Z</time>
      </trkpt>
      <trkpt lat="43.07729" lon="-0.46567">
        <ele>1246.967285</ele>
        <time>2014-08-10T09:48:22Z</time>
      </trkpt>
      <trkpt lat="43.07729" lon="-0.46566">
        <ele>1244.563965</ele>
        <time>2014-08-10T09:48:23Z</time>
      </trkpt>
      <trkpt lat="43.07731" lon="-0.46564">
        <ele>1241.199219</ele>
        <time>2014-08-10T09:48:33Z</time>
      </trkpt>
      <trkpt lat="43.07731" lon="-0.46563">
        <ele>1246.486816</ele>
        <time>2014-08-10T09:48:34Z</time>
      </trkpt>
      <trkpt lat="43.07736" lon="-0.46559">
        <ele>1247.447998</ele>
        <time>2014-08-10T09:48:47Z</time>
      </trkpt>
      <trkpt lat="43.07743" lon="-0.46553">
        <ele>1250.332031</ele>
        <time>2014-08-10T09:49:02Z</time>
      </trkpt>
      <trkpt lat="43.07749" lon="-0.46562">
        <ele>1252.735107</ele>
        <time>2014-08-10T09:49:17Z</time>
      </trkpt>
      <trkpt lat="43.07758" lon="-0.46581">
        <ele>1253.696533</ele>
        <time>2014-08-10T09:49:29Z</time>
      </trkpt>
      <trkpt lat="43.0776" lon="-0.46593">
        <ele>1256.099609</ele>
        <time>2014-08-10T09:49:42Z</time>
      </trkpt>
      <trkpt lat="43.07761" lon="-0.46601">
        <ele>1260.425781</ele>
        <time>2014-08-10T09:49:54Z</time>
      </trkpt>
      <trkpt lat="43.0776" lon="-0.46604">
        <ele>1259.944824</ele>
        <time>2014-08-10T09:49:58Z</time>
      </trkpt>
      <trkpt lat="43.07763" lon="-0.46611">
        <ele>1261.86792</ele>
        <time>2014-08-10T09:50:05Z</time>
      </trkpt>
      <trkpt lat="43.07761" lon="-0.46619">
        <ele>1263.309814</ele>
        <time>2014-08-10T09:50:17Z</time>
      </trkpt>
      <trkpt lat="43.0776" lon="-0.46626">
        <ele>1263.309814</ele>
        <time>2014-08-10T09:50:28Z</time>
      </trkpt>
      <trkpt lat="43.07758" lon="-0.46635">
        <ele>1264.751709</ele>
        <time>2014-08-10T09:50:39Z</time>
      </trkpt>
      <trkpt lat="43.07757" lon="-0.46644">
        <ele>1267.155029</ele>
        <time>2014-08-10T09:50:50Z</time>
      </trkpt>
      <trkpt lat="43.07758" lon="-0.46646">
        <ele>1268.116211</ele>
        <time>2014-08-10T09:50:54Z</time>
      </trkpt>
      <trkpt lat="43.07757" lon="-0.46649">
        <ele>1269.077637</ele>
        <time>2014-08-10T09:51:12Z</time>
      </trkpt>
      <trkpt lat="43.07761" lon="-0.46657">
        <ele>1271.000244</ele>
        <time>2014-08-10T09:51:24Z</time>
      </trkpt>
      <trkpt lat="43.07763" lon="-0.46658">
        <ele>1272.442139</ele>
        <time>2014-08-10T09:51:30Z</time>
      </trkpt>
      <trkpt lat="43.07765" lon="-0.46664">
        <ele>1272.442139</ele>
        <time>2014-08-10T09:51:41Z</time>
      </trkpt>
      <trkpt lat="43.07764" lon="-0.46669">
        <ele>1275.325928</ele>
        <time>2014-08-10T09:51:49Z</time>
      </trkpt>
      <trkpt lat="43.07765" lon="-0.46674">
        <ele>1277.249023</ele>
        <time>2014-08-10T09:52:02Z</time>
      </trkpt>
      <trkpt lat="43.07765" lon="-0.46677">
        <ele>1280.613525</ele>
        <time>2014-08-10T09:52:10Z</time>
      </trkpt>
      <trkpt lat="43.07766" lon="-0.46678">
        <ele>1279.6521</ele>
        <time>2014-08-10T09:52:11Z</time>
      </trkpt>
      <trkpt lat="43.07763" lon="-0.46683">
        <ele>1280.613525</ele>
        <time>2014-08-10T09:52:24Z</time>
      </trkpt>
      <trkpt lat="43.07759" lon="-0.46689">
        <ele>1283.016602</ele>
        <time>2014-08-10T09:52:36Z</time>
      </trkpt>
      <trkpt lat="43.0776" lon="-0.46689">
        <ele>1283.978027</ele>
        <time>2014-08-10T09:52:53Z</time>
      </trkpt>
      <trkpt lat="43.07763" lon="-0.46695">
        <ele>1285.419922</ele>
        <time>2014-08-10T09:53:06Z</time>
      </trkpt>
      <trkpt lat="43.07764" lon="-0.46697">
        <ele>1285.900635</ele>
        <time>2014-08-10T09:53:18Z</time>
      </trkpt>
      <trkpt lat="43.07765" lon="-0.46699">
        <ele>1287.823242</ele>
        <time>2014-08-10T09:53:49Z</time>
      </trkpt>
      <trkpt lat="43.07764" lon="-0.4671">
        <ele>1288.784668</ele>
        <time>2014-08-10T09:54:14Z</time>
      </trkpt>
      <trkpt lat="43.07768" lon="-0.4672">
        <ele>1289.265137</ele>
        <time>2014-08-10T09:54:28Z</time>
      </trkpt>
      <trkpt lat="43.07772" lon="-0.4673">
        <ele>1291.187744</ele>
        <time>2014-08-10T09:54:43Z</time>
      </trkpt>
      <trkpt lat="43.07775" lon="-0.46739">
        <ele>1291.668457</ele>
        <time>2014-08-10T09:55:09Z</time>
      </trkpt>
      <trkpt lat="43.07781" lon="-0.46747">
        <ele>1292.149414</ele>
        <time>2014-08-10T09:55:22Z</time>
      </trkpt>
      <trkpt lat="43.07784" lon="-0.46754">
        <ele>1293.110596</ele>
        <time>2014-08-10T09:55:33Z</time>
      </trkpt>
      <trkpt lat="43.07787" lon="-0.4676">
        <ele>1293.110596</ele>
        <time>2014-08-10T09:55:47Z</time>
      </trkpt>
      <trkpt lat="43.07792" lon="-0.46761">
        <ele>1291.668457</ele>
        <time>2014-08-10T09:56:08Z</time>
      </trkpt>
      <trkpt lat="43.07793" lon="-0.46761">
        <ele>1295.994629</ele>
        <time>2014-08-10T09:56:10Z</time>
      </trkpt>
      <trkpt lat="43.07793" lon="-0.46761">
        <ele>1293.110596</ele>
        <time>2014-08-10T09:56:11Z</time>
      </trkpt>
      <trkpt lat="43.07796" lon="-0.46761">
        <ele>1296.475342</ele>
        <time>2014-08-10T09:56:20Z</time>
      </trkpt>
      <trkpt lat="43.07796" lon="-0.46761">
        <ele>1294.072021</ele>
        <time>2014-08-10T09:56:23Z</time>
      </trkpt>
      <trkpt lat="43.07796" lon="-0.4676">
        <ele>1295.513916</ele>
        <time>2014-08-10T09:56:31Z</time>
      </trkpt>
      <trkpt lat="43.07795" lon="-0.4676">
        <ele>1294.072021</ele>
        <time>2014-08-10T09:56:33Z</time>
      </trkpt>
      <trkpt lat="43.07794" lon="-0.46771">
        <ele>1294.55249</ele>
        <time>2014-08-10T09:56:49Z</time>
      </trkpt>
      <trkpt lat="43.07792" lon="-0.46779">
        <ele>1295.033203</ele>
        <time>2014-08-10T09:57:01Z</time>
      </trkpt>
      <trkpt lat="43.07794" lon="-0.46787">
        <ele>1295.994629</ele>
        <time>2014-08-10T09:57:14Z</time>
      </trkpt>
      <trkpt lat="43.07797" lon="-0.46796">
        <ele>1298.397705</ele>
        <time>2014-08-10T09:57:26Z</time>
      </trkpt>
      <trkpt lat="43.07797" lon="-0.46797">
        <ele>1298.397705</ele>
        <time>2014-08-10T09:57:27Z</time>
      </trkpt>
      <trkpt lat="43.07794" lon="-0.46806">
        <ele>1298.878418</ele>
        <time>2014-08-10T09:57:40Z</time>
      </trkpt>
      <trkpt lat="43.0779" lon="-0.46815">
        <ele>1300.320557</ele>
        <time>2014-08-10T09:57:51Z</time>
      </trkpt>
      <trkpt lat="43.07789" lon="-0.46819">
        <ele>1300.320557</ele>
        <time>2014-08-10T09:57:55Z</time>
      </trkpt>
      <trkpt lat="43.07785" lon="-0.46826">
        <ele>1300.801025</ele>
        <time>2014-08-10T09:58:03Z</time>
      </trkpt>
      <trkpt lat="43.07785" lon="-0.46834">
        <ele>1300.320557</ele>
        <time>2014-08-10T09:58:10Z</time>
      </trkpt>
      <trkpt lat="43.07785" lon="-0.46843">
        <ele>1301.762451</ele>
        <time>2014-08-10T09:58:22Z</time>
      </trkpt>
      <trkpt lat="43.07786" lon="-0.46844">
        <ele>1297.436523</ele>
        <time>2014-08-10T09:58:27Z</time>
      </trkpt>
      <trkpt lat="43.07786" lon="-0.46844">
        <ele>1299.839844</ele>
        <time>2014-08-10T09:58:28Z</time>
      </trkpt>
      <trkpt lat="43.07786" lon="-0.46844">
        <ele>1305.126953</ele>
        <time>2014-08-10T09:58:35Z</time>
      </trkpt>
      <trkpt lat="43.07786" lon="-0.46844">
        <ele>1301.762451</ele>
        <time>2014-08-10T09:58:37Z</time>
      </trkpt>
      <trkpt lat="43.07783" lon="-0.46853">
        <ele>1303.204346</ele>
        <time>2014-08-10T09:58:55Z</time>
      </trkpt>
      <trkpt lat="43.07779" lon="-0.46864">
        <ele>1304.165771</ele>
        <time>2014-08-10T09:59:09Z</time>
      </trkpt>
      <trkpt lat="43.07776" lon="-0.46874">
        <ele>1306.568848</ele>
        <time>2014-08-10T09:59:21Z</time>
      </trkpt>
      <trkpt lat="43.07771" lon="-0.46881">
        <ele>1308.01123</ele>
        <time>2014-08-10T09:59:33Z</time>
      </trkpt>
      <trkpt lat="43.07767" lon="-0.46891">
        <ele>1310.89502</ele>
        <time>2014-08-10T09:59:46Z</time>
      </trkpt>
      <trkpt lat="43.07762" lon="-0.46897">
        <ele>1312.336914</ele>
        <time>2014-08-10T09:59:58Z</time>
      </trkpt>
      <trkpt lat="43.07759" lon="-0.46899">
        <ele>1312.336914</ele>
        <time>2014-08-10T10:00:05Z</time>
      </trkpt>
      <trkpt lat="43.07756" lon="-0.46903">
        <ele>1313.29834</ele>
        <time>2014-08-10T10:00:24Z</time>
      </trkpt>
      <trkpt lat="43.07756" lon="-0.46902">
        <ele>1314.259521</ele>
        <time>2014-08-10T10:01:03Z</time>
      </trkpt>
      <trkpt lat="43.07755" lon="-0.4691">
        <ele>1314.740234</ele>
        <time>2014-08-10T10:01:20Z</time>
      </trkpt>
      <trkpt lat="43.07755" lon="-0.46919">
        <ele>1315.220947</ele>
        <time>2014-08-10T10:01:30Z</time>
      </trkpt>
      <trkpt lat="43.07757" lon="-0.46929">
        <ele>1316.662842</ele>
        <time>2014-08-10T10:01:42Z</time>
      </trkpt>
      <trkpt lat="43.07759" lon="-0.46936">
        <ele>1318.104736</ele>
        <time>2014-08-10T10:01:53Z</time>
      </trkpt>
      <trkpt lat="43.07761" lon="-0.4694">
        <ele>1317.624023</ele>
        <time>2014-08-10T10:02:05Z</time>
      </trkpt>
      <trkpt lat="43.07761" lon="-0.4694">
        <ele>1320.98877</ele>
        <time>2014-08-10T10:02:15Z</time>
      </trkpt>
      <trkpt lat="43.07762" lon="-0.46942">
        <ele>1319.546875</ele>
        <time>2014-08-10T10:02:30Z</time>
      </trkpt>
      <trkpt lat="43.07762" lon="-0.46943">
        <ele>1320.508057</ele>
        <time>2014-08-10T10:03:18Z</time>
      </trkpt>
      <trkpt lat="43.07762" lon="-0.46949">
        <ele>1321.949951</ele>
        <time>2014-08-10T10:03:24Z</time>
      </trkpt>
      <trkpt lat="43.07764" lon="-0.46953">
        <ele>1322.430664</ele>
        <time>2014-08-10T10:03:29Z</time>
      </trkpt>
      <trkpt lat="43.07768" lon="-0.46964">
        <ele>1324.834229</ele>
        <time>2014-08-10T10:03:44Z</time>
      </trkpt>
      <trkpt lat="43.07772" lon="-0.46968">
        <ele>1324.834229</ele>
        <time>2014-08-10T10:03:55Z</time>
      </trkpt>
      <trkpt lat="43.07774" lon="-0.46971">
        <ele>1324.834229</ele>
        <time>2014-08-10T10:04:12Z</time>
      </trkpt>
      <trkpt lat="43.07775" lon="-0.46975">
        <ele>1325.79541</ele>
        <time>2014-08-10T10:04:31Z</time>
      </trkpt>
      <trkpt lat="43.07779" lon="-0.46984">
        <ele>1325.314697</ele>
        <time>2014-08-10T10:04:44Z</time>
      </trkpt>
      <trkpt lat="43.07781" lon="-0.46991">
        <ele>1326.276123</ele>
        <time>2014-08-10T10:04:55Z</time>
      </trkpt>
      <trkpt lat="43.07783" lon="-0.47002">
        <ele>1328.19873</ele>
        <time>2014-08-10T10:05:08Z</time>
      </trkpt>
      <trkpt lat="43.07783" lon="-0.47008">
        <ele>1329.159912</ele>
        <time>2014-08-10T10:05:20Z</time>
      </trkpt>
      <trkpt lat="43.07784" lon="-0.47013">
        <ele>1329.640625</ele>
        <time>2014-08-10T10:05:37Z</time>
      </trkpt>
      <trkpt lat="43.07782" lon="-0.47019">
        <ele>1330.602051</ele>
        <time>2014-08-10T10:05:49Z</time>
      </trkpt>
      <trkpt lat="43.07781" lon="-0.47031">
        <ele>1331.563232</ele>
        <time>2014-08-10T10:06:05Z</time>
      </trkpt>
      <trkpt lat="43.07781" lon="-0.47035">
        <ele>1332.043945</ele>
        <time>2014-08-10T10:06:16Z</time>
      </trkpt>
      <trkpt lat="43.07778" lon="-0.47047">
        <ele>1334.447266</ele>
        <time>2014-08-10T10:06:29Z</time>
      </trkpt>
      <trkpt lat="43.07775" lon="-0.47058">
        <ele>1334.927979</ele>
        <time>2014-08-10T10:06:41Z</time>
      </trkpt>
      <trkpt lat="43.07774" lon="-0.47063">
        <ele>1334.927979</ele>
        <time>2014-08-10T10:06:47Z</time>
      </trkpt>
      <trkpt lat="43.07774" lon="-0.47074">
        <ele>1335.408447</ele>
        <time>2014-08-10T10:06:58Z</time>
      </trkpt>
      <trkpt lat="43.0777" lon="-0.47091">
        <ele>1335.88916</ele>
        <time>2014-08-10T10:07:15Z</time>
      </trkpt>
      <trkpt lat="43.0777" lon="-0.471">
        <ele>1337.331055</ele>
        <time>2014-08-10T10:07:27Z</time>
      </trkpt>
      <trkpt lat="43.0777" lon="-0.47099">
        <ele>1336.850342</ele>
        <time>2014-08-10T10:07:35Z</time>
      </trkpt>
      <trkpt lat="43.07771" lon="-0.47099">
        <ele>1337.331055</ele>
        <time>2014-08-10T10:08:19Z</time>
      </trkpt>
      <trkpt lat="43.07771" lon="-0.47103">
        <ele>1338.29248</ele>
        <time>2014-08-10T10:08:44Z</time>
      </trkpt>
      <trkpt lat="43.07773" lon="-0.47113">
        <ele>1340.215332</ele>
        <time>2014-08-10T10:08:56Z</time>
      </trkpt>
      <trkpt lat="43.07773" lon="-0.47119">
        <ele>1340.215332</ele>
        <time>2014-08-10T10:09:02Z</time>
      </trkpt>
      <trkpt lat="43.07768" lon="-0.47129">
        <ele>1341.657227</ele>
        <time>2014-08-10T10:09:15Z</time>
      </trkpt>
      <trkpt lat="43.07767" lon="-0.47135">
        <ele>1343.579834</ele>
        <time>2014-08-10T10:09:26Z</time>
      </trkpt>
      <trkpt lat="43.07765" lon="-0.47144">
        <ele>1345.502441</ele>
        <time>2014-08-10T10:09:39Z</time>
      </trkpt>
      <trkpt lat="43.07764" lon="-0.47149">
        <ele>1346.463867</ele>
        <time>2014-08-10T10:09:45Z</time>
      </trkpt>
      <trkpt lat="43.07763" lon="-0.47155">
        <ele>1348.866943</ele>
        <time>2014-08-10T10:09:53Z</time>
      </trkpt>
      <trkpt lat="43.07761" lon="-0.47164">
        <ele>1349.828369</ele>
        <time>2014-08-10T10:10:06Z</time>
      </trkpt>
      <trkpt lat="43.07764" lon="-0.47172">
        <ele>1352.712158</ele>
        <time>2014-08-10T10:10:19Z</time>
      </trkpt>
      <trkpt lat="43.07769" lon="-0.47178">
        <ele>1353.192871</ele>
        <time>2014-08-10T10:10:30Z</time>
      </trkpt>
      <trkpt lat="43.07774" lon="-0.47187">
        <ele>1355.115479</ele>
        <time>2014-08-10T10:10:43Z</time>
      </trkpt>
      <trkpt lat="43.07774" lon="-0.47188">
        <ele>1356.076904</ele>
        <time>2014-08-10T10:10:44Z</time>
      </trkpt>
      <trkpt lat="43.07777" lon="-0.472">
        <ele>1357.999756</ele>
        <time>2014-08-10T10:10:56Z</time>
      </trkpt>
      <trkpt lat="43.07779" lon="-0.47203">
        <ele>1359.44165</ele>
        <time>2014-08-10T10:11:00Z</time>
      </trkpt>
      <trkpt lat="43.07784" lon="-0.47213">
        <ele>1360.883545</ele>
        <time>2014-08-10T10:11:12Z</time>
      </trkpt>
      <trkpt lat="43.07788" lon="-0.47224">
        <ele>1360.883545</ele>
        <time>2014-08-10T10:11:24Z</time>
      </trkpt>
      <trkpt lat="43.07791" lon="-0.47231">
        <ele>1364.72876</ele>
        <time>2014-08-10T10:11:32Z</time>
      </trkpt>
      <trkpt lat="43.07792" lon="-0.47241">
        <ele>1365.690186</ele>
        <time>2014-08-10T10:11:42Z</time>
      </trkpt>
      <trkpt lat="43.07793" lon="-0.47245">
        <ele>1365.690186</ele>
        <time>2014-08-10T10:11:46Z</time>
      </trkpt>
      <trkpt lat="43.07795" lon="-0.47247">
        <ele>1363.286865</ele>
        <time>2014-08-10T10:11:49Z</time>
      </trkpt>
      <trkpt lat="43.07803" lon="-0.47259">
        <ele>1364.72876</ele>
        <time>2014-08-10T10:12:03Z</time>
      </trkpt>
      <trkpt lat="43.07806" lon="-0.47262">
        <ele>1362.325439</ele>
        <time>2014-08-10T10:12:07Z</time>
      </trkpt>
      <trkpt lat="43.07814" lon="-0.47274">
        <ele>1361.364258</ele>
        <time>2014-08-10T10:12:21Z</time>
      </trkpt>
      <trkpt lat="43.07821" lon="-0.47284">
        <ele>1360.402832</ele>
        <time>2014-08-10T10:12:32Z</time>
      </trkpt>
      <trkpt lat="43.07829" lon="-0.47296">
        <ele>1360.402832</ele>
        <time>2014-08-10T10:12:46Z</time>
      </trkpt>
      <trkpt lat="43.07834" lon="-0.47296">
        <ele>1359.922119</ele>
        <time>2014-08-10T10:13:00Z</time>
      </trkpt>
      <trkpt lat="43.07835" lon="-0.47296">
        <ele>1359.922119</ele>
        <time>2014-08-10T10:13:37Z</time>
      </trkpt>
      <trkpt lat="43.07835" lon="-0.47299">
        <ele>1359.922119</ele>
        <time>2014-08-10T10:13:54Z</time>
      </trkpt>
      <trkpt lat="43.07831" lon="-0.47307">
        <ele>1358.960938</ele>
        <time>2014-08-10T10:14:07Z</time>
      </trkpt>
      <trkpt lat="43.07829" lon="-0.47304">
        <ele>1357.999756</ele>
        <time>2014-08-10T10:14:10Z</time>
      </trkpt>
      <trkpt lat="43.07828" lon="-0.47301">
        <ele>1358.960938</ele>
        <time>2014-08-10T10:14:13Z</time>
      </trkpt>
      <trkpt lat="43.07827" lon="-0.47296">
        <ele>1359.922119</ele>
        <time>2014-08-10T10:14:17Z</time>
      </trkpt>
      <trkpt lat="43.07824" lon="-0.47292">
        <ele>1358.960938</ele>
        <time>2014-08-10T10:14:21Z</time>
      </trkpt>
      <trkpt lat="43.07823" lon="-0.4729">
        <ele>1359.922119</ele>
        <time>2014-08-10T10:14:23Z</time>
      </trkpt>
      <trkpt lat="43.07816" lon="-0.4728">
        <ele>1360.883545</ele>
        <time>2014-08-10T10:14:35Z</time>
      </trkpt>
      <trkpt lat="43.0781" lon="-0.47271">
        <ele>1360.883545</ele>
        <time>2014-08-10T10:14:45Z</time>
      </trkpt>
      <trkpt lat="43.07806" lon="-0.47272">
        <ele>1362.806152</ele>
        <time>2014-08-10T10:15:07Z</time>
      </trkpt>
      <trkpt lat="43.07808" lon="-0.47271">
        <ele>1362.325439</ele>
        <time>2014-08-10T10:16:43Z</time>
      </trkpt>
      <trkpt lat="43.07813" lon="-0.47271">
        <ele>1361.364258</ele>
        <time>2014-08-10T10:16:57Z</time>
      </trkpt>
      <trkpt lat="43.07821" lon="-0.47283">
        <ele>1360.883545</ele>
        <time>2014-08-10T10:17:11Z</time>
      </trkpt>
      <trkpt lat="43.07823" lon="-0.47287">
        <ele>1360.402832</ele>
        <time>2014-08-10T10:17:15Z</time>
      </trkpt>
      <trkpt lat="43.0783" lon="-0.47298">
        <ele>1360.883545</ele>
        <time>2014-08-10T10:17:28Z</time>
      </trkpt>
      <trkpt lat="43.07835" lon="-0.47298">
        <ele>1359.922119</ele>
        <time>2014-08-10T10:17:42Z</time>
      </trkpt>
      <trkpt lat="43.07834" lon="-0.47299">
        <ele>1359.922119</ele>
        <time>2014-08-10T10:18:12Z</time>
      </trkpt>
      <trkpt lat="43.07835" lon="-0.47299">
        <ele>1360.402832</ele>
        <time>2014-08-10T10:18:48Z</time>
      </trkpt>
      <trkpt lat="43.07835" lon="-0.47299">
        <ele>1359.922119</ele>
        <time>2014-08-10T10:19:19Z</time>
      </trkpt>
      <trkpt lat="43.07835" lon="-0.47298">
        <ele>1360.402832</ele>
        <time>2014-08-10T10:19:37Z</time>
      </trkpt>
      <trkpt lat="43.07835" lon="-0.47297">
        <ele>1359.922119</ele>
        <time>2014-08-10T10:20:07Z</time>
      </trkpt>
      <trkpt lat="43.07836" lon="-0.47299">
        <ele>1359.922119</ele>
        <time>2014-08-10T10:21:11Z</time>
      </trkpt>
      <trkpt lat="43.07834" lon="-0.47299">
        <ele>1359.44165</ele>
        <time>2014-08-10T10:21:34Z</time>
      </trkpt>
      <trkpt lat="43.07835" lon="-0.47298">
        <ele>1360.402832</ele>
        <time>2014-08-10T10:21:57Z</time>
      </trkpt>
      <trkpt lat="43.07835" lon="-0.47297">
        <ele>1361.364258</ele>
        <time>2014-08-10T10:22:33Z</time>
      </trkpt>
      <trkpt lat="43.07834" lon="-0.47297">
        <ele>1360.883545</ele>
        <time>2014-08-10T10:23:28Z</time>
      </trkpt>
      <trkpt lat="43.07834" lon="-0.47297">
        <ele>1361.364258</ele>
        <time>2014-08-10T10:24:58Z</time>
      </trkpt>
      <trkpt lat="43.07835" lon="-0.47298">
        <ele>1361.364258</ele>
        <time>2014-08-10T10:27:42Z</time>
      </trkpt>
      <trkpt lat="43.07835" lon="-0.47298">
        <ele>1362.806152</ele>
        <time>2014-08-10T10:27:48Z</time>
      </trkpt>
      <trkpt lat="43.07835" lon="-0.47298">
        <ele>1361.844971</ele>
        <time>2014-08-10T10:27:59Z</time>
      </trkpt>
      <trkpt lat="43.07835" lon="-0.47298">
        <ele>1362.806152</ele>
        <time>2014-08-10T10:29:01Z</time>
      </trkpt>
      <trkpt lat="43.07834" lon="-0.47299">
        <ele>1364.72876</ele>
        <time>2014-08-10T10:29:53Z</time>
      </trkpt>
      <trkpt lat="43.07835" lon="-0.47299">
        <ele>1361.364258</ele>
        <time>2014-08-10T10:30:26Z</time>
      </trkpt>
      <trkpt lat="43.07835" lon="-0.47299">
        <ele>1362.806152</ele>
        <time>2014-08-10T10:30:37Z</time>
      </trkpt>
      <trkpt lat="43.07834" lon="-0.47298">
        <ele>1360.883545</ele>
        <time>2014-08-10T10:32:31Z</time>
      </trkpt>
      <trkpt lat="43.07836" lon="-0.47297">
        <ele>1360.883545</ele>
        <time>2014-08-10T10:32:57Z</time>
      </trkpt>
      <trkpt lat="43.07836" lon="-0.47298">
        <ele>1361.844971</ele>
        <time>2014-08-10T10:34:36Z</time>
      </trkpt>
      <trkpt lat="43.07835" lon="-0.473">
        <ele>1362.325439</ele>
        <time>2014-08-10T10:35:54Z</time>
      </trkpt>
      <trkpt lat="43.07835" lon="-0.47301">
        <ele>1362.325439</ele>
        <time>2014-08-10T10:36:54Z</time>
      </trkpt>
      <trkpt lat="43.07835" lon="-0.47299">
        <ele>1365.690186</ele>
        <time>2014-08-10T10:46:57Z</time>
      </trkpt>
      <trkpt lat="43.07836" lon="-0.473">
        <ele>1364.72876</ele>
        <time>2014-08-10T10:52:00Z</time>
      </trkpt>
      <trkpt lat="43.07837" lon="-0.47299">
        <ele>1365.209473</ele>
        <time>2014-08-10T11:04:16Z</time>
      </trkpt>
      <trkpt lat="43.07839" lon="-0.473">
        <ele>1365.209473</ele>
        <time>2014-08-10T11:12:09Z</time>
      </trkpt>
      <trkpt lat="43.07837" lon="-0.47299">
        <ele>1365.209473</ele>
        <time>2014-08-10T11:13:56Z</time>
      </trkpt>
      <trkpt lat="43.07838" lon="-0.473">
        <ele>1365.209473</ele>
        <time>2014-08-10T11:14:35Z</time>
      </trkpt>
      <trkpt lat="43.07838" lon="-0.473">
        <ele>1366.170654</ele>
        <time>2014-08-10T11:15:42Z</time>
      </trkpt>
      <trkpt lat="43.07835" lon="-0.47299">
        <ele>1365.690186</ele>
        <time>2014-08-10T11:16:03Z</time>
      </trkpt>
      <trkpt lat="43.07832" lon="-0.473">
        <ele>1364.72876</ele>
        <time>2014-08-10T11:16:46Z</time>
      </trkpt>
      <trkpt lat="43.0783" lon="-0.47308">
        <ele>1363.286865</ele>
        <time>2014-08-10T11:17:03Z</time>
      </trkpt>
      <trkpt lat="43.07826" lon="-0.47308">
        <ele>1362.806152</ele>
        <time>2014-08-10T11:17:15Z</time>
      </trkpt>
      <trkpt lat="43.07822" lon="-0.47307">
        <ele>1360.402832</ele>
        <time>2014-08-10T11:17:34Z</time>
      </trkpt>
      <trkpt lat="43.07813" lon="-0.47303">
        <ele>1359.922119</ele>
        <time>2014-08-10T11:17:47Z</time>
      </trkpt>
      <trkpt lat="43.0781" lon="-0.47299">
        <ele>1358.480225</ele>
        <time>2014-08-10T11:17:59Z</time>
      </trkpt>
      <trkpt lat="43.07811" lon="-0.47299">
        <ele>1358.960938</ele>
        <time>2014-08-10T11:18:05Z</time>
      </trkpt>
      <trkpt lat="43.07807" lon="-0.47302">
        <ele>1355.596191</ele>
        <time>2014-08-10T11:18:20Z</time>
      </trkpt>
      <trkpt lat="43.07801" lon="-0.47303">
        <ele>1355.596191</ele>
        <time>2014-08-10T11:18:31Z</time>
      </trkpt>
      <trkpt lat="43.07804" lon="-0.47309">
        <ele>1353.673584</ele>
        <time>2014-08-10T11:18:43Z</time>
      </trkpt>
      <trkpt lat="43.07794" lon="-0.47309">
        <ele>1350.309082</ele>
        <time>2014-08-10T11:18:58Z</time>
      </trkpt>
      <trkpt lat="43.07786" lon="-0.47305">
        <ele>1349.828369</ele>
        <time>2014-08-10T11:19:10Z</time>
      </trkpt>
      <trkpt lat="43.07784" lon="-0.47302">
        <ele>1347.425049</ele>
        <time>2014-08-10T11:19:29Z</time>
      </trkpt>
      <trkpt lat="43.0778" lon="-0.47296">
        <ele>1346.463867</ele>
        <time>2014-08-10T11:19:40Z</time>
      </trkpt>
      <trkpt lat="43.0778" lon="-0.47295">
        <ele>1344.541016</ele>
        <time>2014-08-10T11:19:49Z</time>
      </trkpt>
      <trkpt lat="43.07776" lon="-0.47291">
        <ele>1344.541016</ele>
        <time>2014-08-10T11:20:03Z</time>
      </trkpt>
      <trkpt lat="43.07772" lon="-0.47287">
        <ele>1343.579834</ele>
        <time>2014-08-10T11:20:15Z</time>
      </trkpt>
      <trkpt lat="43.07765" lon="-0.47285">
        <ele>1343.099121</ele>
        <time>2014-08-10T11:20:27Z</time>
      </trkpt>
      <trkpt lat="43.07756" lon="-0.47281">
        <ele>1340.695801</ele>
        <time>2014-08-10T11:20:41Z</time>
      </trkpt>
      <trkpt lat="43.0775" lon="-0.47278">
        <ele>1338.773193</ele>
        <time>2014-08-10T11:20:56Z</time>
      </trkpt>
      <trkpt lat="43.07746" lon="-0.47278">
        <ele>1337.331055</ele>
        <time>2014-08-10T11:21:10Z</time>
      </trkpt>
      <trkpt lat="43.07739" lon="-0.47273">
        <ele>1335.408447</ele>
        <time>2014-08-10T11:21:25Z</time>
      </trkpt>
      <trkpt lat="43.07732" lon="-0.47269">
        <ele>1332.524658</ele>
        <time>2014-08-10T11:21:42Z</time>
      </trkpt>
      <trkpt lat="43.07725" lon="-0.47265">
        <ele>1332.043945</ele>
        <time>2014-08-10T11:21:55Z</time>
      </trkpt>
      <trkpt lat="43.07717" lon="-0.4726">
        <ele>1330.121338</ele>
        <time>2014-08-10T11:22:08Z</time>
      </trkpt>
      <trkpt lat="43.07713" lon="-0.47258">
        <ele>1328.679443</ele>
        <time>2014-08-10T11:22:17Z</time>
      </trkpt>
      <trkpt lat="43.07711" lon="-0.47257">
        <ele>1328.19873</ele>
        <time>2014-08-10T11:22:33Z</time>
      </trkpt>
      <trkpt lat="43.07708" lon="-0.47256">
        <ele>1328.679443</ele>
        <time>2014-08-10T11:22:38Z</time>
      </trkpt>
      <trkpt lat="43.07705" lon="-0.47255">
        <ele>1327.718018</ele>
        <time>2014-08-10T11:22:41Z</time>
      </trkpt>
      <trkpt lat="43.07696" lon="-0.47252">
        <ele>1326.756836</ele>
        <time>2014-08-10T11:22:53Z</time>
      </trkpt>
      <trkpt lat="43.0769" lon="-0.47249">
        <ele>1325.79541</ele>
        <time>2014-08-10T11:23:00Z</time>
      </trkpt>
      <trkpt lat="43.07683" lon="-0.47246">
        <ele>1324.834229</ele>
        <time>2014-08-10T11:23:09Z</time>
      </trkpt>
      <trkpt lat="43.07677" lon="-0.47239">
        <ele>1324.353516</ele>
        <time>2014-08-10T11:23:20Z</time>
      </trkpt>
      <trkpt lat="43.07671" lon="-0.47237">
        <ele>1322.430664</ele>
        <time>2014-08-10T11:23:28Z</time>
      </trkpt>
      <trkpt lat="43.07669" lon="-0.47233">
        <ele>1322.430664</ele>
        <time>2014-08-10T11:23:32Z</time>
      </trkpt>
      <trkpt lat="43.07665" lon="-0.47223">
        <ele>1320.98877</ele>
        <time>2014-08-10T11:23:44Z</time>
      </trkpt>
      <trkpt lat="43.0766" lon="-0.47212">
        <ele>1319.546875</ele>
        <time>2014-08-10T11:24:01Z</time>
      </trkpt>
      <trkpt lat="43.0766" lon="-0.47196">
        <ele>1318.585449</ele>
        <time>2014-08-10T11:24:15Z</time>
      </trkpt>
      <trkpt lat="43.0766" lon="-0.4719">
        <ele>1317.143555</ele>
        <time>2014-08-10T11:24:22Z</time>
      </trkpt>
      <trkpt lat="43.0766" lon="-0.47185">
        <ele>1315.220947</ele>
        <time>2014-08-10T11:24:29Z</time>
      </trkpt>
      <trkpt lat="43.07659" lon="-0.47172">
        <ele>1312.817627</ele>
        <time>2014-08-10T11:24:43Z</time>
      </trkpt>
      <trkpt lat="43.07661" lon="-0.47157">
        <ele>1312.817627</ele>
        <time>2014-08-10T11:24:55Z</time>
      </trkpt>
      <trkpt lat="43.07663" lon="-0.47149">
        <ele>1311.375732</ele>
        <time>2014-08-10T11:25:08Z</time>
      </trkpt>
      <trkpt lat="43.07664" lon="-0.47141">
        <ele>1308.972412</ele>
        <time>2014-08-10T11:25:18Z</time>
      </trkpt>
      <trkpt lat="43.07666" lon="-0.47133">
        <ele>1308.972412</ele>
        <time>2014-08-10T11:25:31Z</time>
      </trkpt>
      <trkpt lat="43.0767" lon="-0.47128">
        <ele>1308.01123</ele>
        <time>2014-08-10T11:25:43Z</time>
      </trkpt>
      <trkpt lat="43.07672" lon="-0.47122">
        <ele>1306.088135</ele>
        <time>2014-08-10T11:26:00Z</time>
      </trkpt>
      <trkpt lat="43.07675" lon="-0.47114">
        <ele>1303.685059</ele>
        <time>2014-08-10T11:26:12Z</time>
      </trkpt>
      <trkpt lat="43.07679" lon="-0.47102">
        <ele>1302.723633</ele>
        <time>2014-08-10T11:26:25Z</time>
      </trkpt>
      <trkpt lat="43.07679" lon="-0.47095">
        <ele>1301.762451</ele>
        <time>2014-08-10T11:26:38Z</time>
      </trkpt>
      <trkpt lat="43.07676" lon="-0.47087">
        <ele>1300.801025</ele>
        <time>2014-08-10T11:26:51Z</time>
      </trkpt>
      <trkpt lat="43.07677" lon="-0.47079">
        <ele>1297.436523</ele>
        <time>2014-08-10T11:27:02Z</time>
      </trkpt>
      <trkpt lat="43.0768" lon="-0.47072">
        <ele>1294.072021</ele>
        <time>2014-08-10T11:27:11Z</time>
      </trkpt>
      <trkpt lat="43.07681" lon="-0.47066">
        <ele>1292.149414</ele>
        <time>2014-08-10T11:27:26Z</time>
      </trkpt>
      <trkpt lat="43.07681" lon="-0.47056">
        <ele>1292.630127</ele>
        <time>2014-08-10T11:27:39Z</time>
      </trkpt>
      <trkpt lat="43.0768" lon="-0.47047">
        <ele>1291.187744</ele>
        <time>2014-08-10T11:27:48Z</time>
      </trkpt>
      <trkpt lat="43.07681" lon="-0.47038">
        <ele>1288.784668</ele>
        <time>2014-08-10T11:27:58Z</time>
      </trkpt>
      <trkpt lat="43.07683" lon="-0.4703">
        <ele>1287.342529</ele>
        <time>2014-08-10T11:28:08Z</time>
      </trkpt>
      <trkpt lat="43.07684" lon="-0.47025">
        <ele>1286.861816</ele>
        <time>2014-08-10T11:28:13Z</time>
      </trkpt>
      <trkpt lat="43.07687" lon="-0.47011">
        <ele>1285.419922</ele>
        <time>2014-08-10T11:28:26Z</time>
      </trkpt>
      <trkpt lat="43.07687" lon="-0.47008">
        <ele>1283.978027</ele>
        <time>2014-08-10T11:28:29Z</time>
      </trkpt>
      <trkpt lat="43.07688" lon="-0.46997">
        <ele>1283.016602</ele>
        <time>2014-08-10T11:28:41Z</time>
      </trkpt>
      <trkpt lat="43.07688" lon="-0.46988">
        <ele>1280.613525</ele>
        <time>2014-08-10T11:28:50Z</time>
      </trkpt>
      <trkpt lat="43.07689" lon="-0.46977">
        <ele>1279.171387</ele>
        <time>2014-08-10T11:28:59Z</time>
      </trkpt>
      <trkpt lat="43.0769" lon="-0.46974">
        <ele>1279.6521</ele>
        <time>2014-08-10T11:29:02Z</time>
      </trkpt>
      <trkpt lat="43.07689" lon="-0.46963">
        <ele>1278.690918</ele>
        <time>2014-08-10T11:29:11Z</time>
      </trkpt>
      <trkpt lat="43.0769" lon="-0.4695">
        <ele>1276.287598</ele>
        <time>2014-08-10T11:29:23Z</time>
      </trkpt>
      <trkpt lat="43.0769" lon="-0.46941">
        <ele>1274.845459</ele>
        <time>2014-08-10T11:29:32Z</time>
      </trkpt>
      <trkpt lat="43.07692" lon="-0.46927">
        <ele>1274.364746</ele>
        <time>2014-08-10T11:29:44Z</time>
      </trkpt>
      <trkpt lat="43.07691" lon="-0.46918">
        <ele>1272.922852</ele>
        <time>2014-08-10T11:29:55Z</time>
      </trkpt>
      <trkpt lat="43.0769" lon="-0.46903">
        <ele>1271.480713</ele>
        <time>2014-08-10T11:30:09Z</time>
      </trkpt>
      <trkpt lat="43.07688" lon="-0.46891">
        <ele>1269.55835</ele>
        <time>2014-08-10T11:30:21Z</time>
      </trkpt>
      <trkpt lat="43.07688" lon="-0.46884">
        <ele>1268.596924</ele>
        <time>2014-08-10T11:30:28Z</time>
      </trkpt>
      <trkpt lat="43.0769" lon="-0.46872">
        <ele>1268.596924</ele>
        <time>2014-08-10T11:30:38Z</time>
      </trkpt>
      <trkpt lat="43.07691" lon="-0.4686">
        <ele>1266.193604</ele>
        <time>2014-08-10T11:30:50Z</time>
      </trkpt>
      <trkpt lat="43.07693" lon="-0.46843">
        <ele>1265.232422</ele>
        <time>2014-08-10T11:31:04Z</time>
      </trkpt>
      <trkpt lat="43.0769" lon="-0.46835">
        <ele>1263.790283</ele>
        <time>2014-08-10T11:31:18Z</time>
      </trkpt>
      <trkpt lat="43.0769" lon="-0.46827">
        <ele>1262.829102</ele>
        <time>2014-08-10T11:31:27Z</time>
      </trkpt>
      <trkpt lat="43.07689" lon="-0.46815">
        <ele>1260.906494</ele>
        <time>2014-08-10T11:31:39Z</time>
      </trkpt>
      <trkpt lat="43.07689" lon="-0.46808">
        <ele>1259.944824</ele>
        <time>2014-08-10T11:31:50Z</time>
      </trkpt>
      <trkpt lat="43.0769" lon="-0.46797">
        <ele>1259.464355</ele>
        <time>2014-08-10T11:32:00Z</time>
      </trkpt>
      <trkpt lat="43.07692" lon="-0.46784">
        <ele>1258.50293</ele>
        <time>2014-08-10T11:32:12Z</time>
      </trkpt>
      <trkpt lat="43.07691" lon="-0.46773">
        <ele>1257.061035</ele>
        <time>2014-08-10T11:32:27Z</time>
      </trkpt>
      <trkpt lat="43.07692" lon="-0.46763">
        <ele>1254.657715</ele>
        <time>2014-08-10T11:32:40Z</time>
      </trkpt>
      <trkpt lat="43.07693" lon="-0.46755">
        <ele>1253.696533</ele>
        <time>2014-08-10T11:32:50Z</time>
      </trkpt>
      <trkpt lat="43.07692" lon="-0.46744">
        <ele>1250.8125</ele>
        <time>2014-08-10T11:33:02Z</time>
      </trkpt>
      <trkpt lat="43.07693" lon="-0.46736">
        <ele>1250.332031</ele>
        <time>2014-08-10T11:33:11Z</time>
      </trkpt>
      <trkpt lat="43.07693" lon="-0.46728">
        <ele>1249.851318</ele>
        <time>2014-08-10T11:33:19Z</time>
      </trkpt>
      <trkpt lat="43.07692" lon="-0.46717">
        <ele>1248.889893</ele>
        <time>2014-08-10T11:33:31Z</time>
      </trkpt>
      <trkpt lat="43.07693" lon="-0.46705">
        <ele>1248.40918</ele>
        <time>2014-08-10T11:33:41Z</time>
      </trkpt>
      <trkpt lat="43.07691" lon="-0.46693">
        <ele>1247.447998</ele>
        <time>2014-08-10T11:33:53Z</time>
      </trkpt>
      <trkpt lat="43.07687" lon="-0.46685">
        <ele>1245.044678</ele>
        <time>2014-08-10T11:34:04Z</time>
      </trkpt>
      <trkpt lat="43.07686" lon="-0.46675">
        <ele>1243.602539</ele>
        <time>2014-08-10T11:34:13Z</time>
      </trkpt>
      <trkpt lat="43.07684" lon="-0.46663">
        <ele>1241.679932</ele>
        <time>2014-08-10T11:34:24Z</time>
      </trkpt>
      <trkpt lat="43.07682" lon="-0.46653">
        <ele>1240.238037</ele>
        <time>2014-08-10T11:34:34Z</time>
      </trkpt>
      <trkpt lat="43.07681" lon="-0.46643">
        <ele>1239.757324</ele>
        <time>2014-08-10T11:34:42Z</time>
      </trkpt>
      <trkpt lat="43.07681" lon="-0.46627">
        <ele>1238.796143</ele>
        <time>2014-08-10T11:34:55Z</time>
      </trkpt>
      <trkpt lat="43.0768" lon="-0.46616">
        <ele>1238.31543</ele>
        <time>2014-08-10T11:35:05Z</time>
      </trkpt>
      <trkpt lat="43.0768" lon="-0.46608">
        <ele>1237.354004</ele>
        <time>2014-08-10T11:35:15Z</time>
      </trkpt>
      <trkpt lat="43.0768" lon="-0.46601">
        <ele>1236.392822</ele>
        <time>2014-08-10T11:35:27Z</time>
      </trkpt>
      <trkpt lat="43.07679" lon="-0.46591">
        <ele>1234.950928</ele>
        <time>2014-08-10T11:35:39Z</time>
      </trkpt>
      <trkpt lat="43.07678" lon="-0.46578">
        <ele>1233.508789</ele>
        <time>2014-08-10T11:35:50Z</time>
      </trkpt>
      <trkpt lat="43.07678" lon="-0.46564">
        <ele>1232.066895</ele>
        <time>2014-08-10T11:36:02Z</time>
      </trkpt>
      <trkpt lat="43.07678" lon="-0.4656">
        <ele>1231.105713</ele>
        <time>2014-08-10T11:36:06Z</time>
      </trkpt>
      <trkpt lat="43.07676" lon="-0.46551">
        <ele>1229.182861</ele>
        <time>2014-08-10T11:36:16Z</time>
      </trkpt>
      <trkpt lat="43.07675" lon="-0.46539">
        <ele>1227.740723</ele>
        <time>2014-08-10T11:36:27Z</time>
      </trkpt>
      <trkpt lat="43.07673" lon="-0.46526">
        <ele>1226.298828</ele>
        <time>2014-08-10T11:36:37Z</time>
      </trkpt>
      <trkpt lat="43.0767" lon="-0.46513">
        <ele>1226.298828</ele>
        <time>2014-08-10T11:36:47Z</time>
      </trkpt>
      <trkpt lat="43.07667" lon="-0.46507">
        <ele>1225.337402</ele>
        <time>2014-08-10T11:36:54Z</time>
      </trkpt>
      <trkpt lat="43.0766" lon="-0.46493">
        <ele>1223.415039</ele>
        <time>2014-08-10T11:37:08Z</time>
      </trkpt>
      <trkpt lat="43.07653" lon="-0.46486">
        <ele>1222.934326</ele>
        <time>2014-08-10T11:37:18Z</time>
      </trkpt>
      <trkpt lat="43.07649" lon="-0.46482">
        <ele>1221.492188</ele>
        <time>2014-08-10T11:37:24Z</time>
      </trkpt>
      <trkpt lat="43.07642" lon="-0.46479">
        <ele>1220.050293</ele>
        <time>2014-08-10T11:37:33Z</time>
      </trkpt>
      <trkpt lat="43.07634" lon="-0.46475">
        <ele>1218.608398</ele>
        <time>2014-08-10T11:37:42Z</time>
      </trkpt>
      <trkpt lat="43.07628" lon="-0.46466">
        <ele>1218.127686</ele>
        <time>2014-08-10T11:37:53Z</time>
      </trkpt>
      <trkpt lat="43.07617" lon="-0.46454">
        <ele>1217.166504</ele>
        <time>2014-08-10T11:38:18Z</time>
      </trkpt>
      <trkpt lat="43.07609" lon="-0.46446">
        <ele>1217.166504</ele>
        <time>2014-08-10T11:38:31Z</time>
      </trkpt>
      <trkpt lat="43.07605" lon="-0.46443">
        <ele>1216.205078</ele>
        <time>2014-08-10T11:38:36Z</time>
      </trkpt>
      <trkpt lat="43.07597" lon="-0.46435">
        <ele>1216.205078</ele>
        <time>2014-08-10T11:38:46Z</time>
      </trkpt>
      <trkpt lat="43.07591" lon="-0.46425">
        <ele>1215.724609</ele>
        <time>2014-08-10T11:38:56Z</time>
      </trkpt>
      <trkpt lat="43.07581" lon="-0.46418">
        <ele>1214.763184</ele>
        <time>2014-08-10T11:39:08Z</time>
      </trkpt>
      <trkpt lat="43.07572" lon="-0.46409">
        <ele>1213.801758</ele>
        <time>2014-08-10T11:39:20Z</time>
      </trkpt>
      <trkpt lat="43.07564" lon="-0.46401">
        <ele>1213.801758</ele>
        <time>2014-08-10T11:39:31Z</time>
      </trkpt>
      <trkpt lat="43.07561" lon="-0.46397">
        <ele>1212.840576</ele>
        <time>2014-08-10T11:39:35Z</time>
      </trkpt>
      <trkpt lat="43.07553" lon="-0.46389">
        <ele>1212.359863</ele>
        <time>2014-08-10T11:39:46Z</time>
      </trkpt>
      <trkpt lat="43.07545" lon="-0.46383">
        <ele>1211.87915</ele>
        <time>2014-08-10T11:39:56Z</time>
      </trkpt>
      <trkpt lat="43.07536" lon="-0.46374">
        <ele>1209.956299</ele>
        <time>2014-08-10T11:40:08Z</time>
      </trkpt>
      <trkpt lat="43.07529" lon="-0.46366">
        <ele>1209.47583</ele>
        <time>2014-08-10T11:40:18Z</time>
      </trkpt>
      <trkpt lat="43.07514" lon="-0.46353">
        <ele>1208.514404</ele>
        <time>2014-08-10T11:40:32Z</time>
      </trkpt>
      <trkpt lat="43.07506" lon="-0.46344">
        <ele>1207.553223</ele>
        <time>2014-08-10T11:40:43Z</time>
      </trkpt>
      <trkpt lat="43.075" lon="-0.46338">
        <ele>1208.033936</ele>
        <time>2014-08-10T11:40:52Z</time>
      </trkpt>
      <trkpt lat="43.0749" lon="-0.4633">
        <ele>1207.07251</ele>
        <time>2014-08-10T11:41:04Z</time>
      </trkpt>
      <trkpt lat="43.07482" lon="-0.46324">
        <ele>1206.591797</ele>
        <time>2014-08-10T11:41:16Z</time>
      </trkpt>
      <trkpt lat="43.07481" lon="-0.46321">
        <ele>1206.111084</ele>
        <time>2014-08-10T11:41:18Z</time>
      </trkpt>
      <trkpt lat="43.07477" lon="-0.46319">
        <ele>1206.111084</ele>
        <time>2014-08-10T11:41:22Z</time>
      </trkpt>
      <trkpt lat="43.07473" lon="-0.46316">
        <ele>1205.630615</ele>
        <time>2014-08-10T11:41:26Z</time>
      </trkpt>
      <trkpt lat="43.07459" lon="-0.46302">
        <ele>1204.669189</ele>
        <time>2014-08-10T11:41:41Z</time>
      </trkpt>
      <trkpt lat="43.07451" lon="-0.46294">
        <ele>1203.708008</ele>
        <time>2014-08-10T11:41:52Z</time>
      </trkpt>
      <trkpt lat="43.07442" lon="-0.46285">
        <ele>1203.227295</ele>
        <time>2014-08-10T11:42:02Z</time>
      </trkpt>
      <trkpt lat="43.0744" lon="-0.46284">
        <ele>1202.746582</ele>
        <time>2014-08-10T11:42:04Z</time>
      </trkpt>
      <trkpt lat="43.07428" lon="-0.46275">
        <ele>1201.7854</ele>
        <time>2014-08-10T11:42:18Z</time>
      </trkpt>
      <trkpt lat="43.07414" lon="-0.46262">
        <ele>1201.304688</ele>
        <time>2014-08-10T11:42:31Z</time>
      </trkpt>
      <trkpt lat="43.07403" lon="-0.46243">
        <ele>1200.823975</ele>
        <time>2014-08-10T11:42:45Z</time>
      </trkpt>
      <trkpt lat="43.07399" lon="-0.4622">
        <ele>1200.343506</ele>
        <time>2014-08-10T11:43:00Z</time>
      </trkpt>
      <trkpt lat="43.07395" lon="-0.46197">
        <ele>1199.862793</ele>
        <time>2014-08-10T11:43:14Z</time>
      </trkpt>
      <trkpt lat="43.07392" lon="-0.46177">
        <ele>1199.862793</ele>
        <time>2014-08-10T11:43:26Z</time>
      </trkpt>
      <trkpt lat="43.07386" lon="-0.46156">
        <ele>1198.901367</ele>
        <time>2014-08-10T11:43:41Z</time>
      </trkpt>
      <trkpt lat="43.07384" lon="-0.46151">
        <ele>1198.901367</ele>
        <time>2014-08-10T11:43:45Z</time>
      </trkpt>
      <trkpt lat="43.07382" lon="-0.46141">
        <ele>1197.459473</ele>
        <time>2014-08-10T11:43:53Z</time>
      </trkpt>
      <trkpt lat="43.07381" lon="-0.46127">
        <ele>1196.97876</ele>
        <time>2014-08-10T11:44:03Z</time>
      </trkpt>
      <trkpt lat="43.07377" lon="-0.46105">
        <ele>1194.094727</ele>
        <time>2014-08-10T11:44:19Z</time>
      </trkpt>
      <trkpt lat="43.07374" lon="-0.46084">
        <ele>1193.133301</ele>
        <time>2014-08-10T11:44:34Z</time>
      </trkpt>
      <trkpt lat="43.07373" lon="-0.46083">
        <ele>1192.652832</ele>
        <time>2014-08-10T11:44:35Z</time>
      </trkpt>
      <trkpt lat="43.0737" lon="-0.46065">
        <ele>1191.691406</ele>
        <time>2014-08-10T11:44:49Z</time>
      </trkpt>
      <trkpt lat="43.07368" lon="-0.46048">
        <ele>1190.72998</ele>
        <time>2014-08-10T11:45:02Z</time>
      </trkpt>
      <trkpt lat="43.07363" lon="-0.46038">
        <ele>1187.846191</ele>
        <time>2014-08-10T11:45:13Z</time>
      </trkpt>
      <trkpt lat="43.07363" lon="-0.46037">
        <ele>1187.365479</ele>
        <time>2014-08-10T11:45:14Z</time>
      </trkpt>
      <trkpt lat="43.07359" lon="-0.46029">
        <ele>1184.962402</ele>
        <time>2014-08-10T11:45:26Z</time>
      </trkpt>
      <trkpt lat="43.07359" lon="-0.46022">
        <ele>1184.481689</ele>
        <time>2014-08-10T11:45:33Z</time>
      </trkpt>
      <trkpt lat="43.07364" lon="-0.46009">
        <ele>1182.559082</ele>
        <time>2014-08-10T11:45:45Z</time>
      </trkpt>
      <trkpt lat="43.07364" lon="-0.46007">
        <ele>1182.559082</ele>
        <time>2014-08-10T11:45:46Z</time>
      </trkpt>
      <trkpt lat="43.07364" lon="-0.45997">
        <ele>1181.117188</ele>
        <time>2014-08-10T11:45:56Z</time>
      </trkpt>
      <trkpt lat="43.07364" lon="-0.45987">
        <ele>1179.674805</ele>
        <time>2014-08-10T11:46:08Z</time>
      </trkpt>
      <trkpt lat="43.07366" lon="-0.45972">
        <ele>1178.713623</ele>
        <time>2014-08-10T11:46:20Z</time>
      </trkpt>
      <trkpt lat="43.07367" lon="-0.4596">
        <ele>1178.23291</ele>
        <time>2014-08-10T11:46:29Z</time>
      </trkpt>
      <trkpt lat="43.07368" lon="-0.4595">
        <ele>1176.791016</ele>
        <time>2014-08-10T11:46:38Z</time>
      </trkpt>
      <trkpt lat="43.07367" lon="-0.45938">
        <ele>1175.348877</ele>
        <time>2014-08-10T11:46:50Z</time>
      </trkpt>
      <trkpt lat="43.07367" lon="-0.45925">
        <ele>1174.868408</ele>
        <time>2014-08-10T11:46:59Z</time>
      </trkpt>
      <trkpt lat="43.07368" lon="-0.45912">
        <ele>1172.945801</ele>
        <time>2014-08-10T11:47:09Z</time>
      </trkpt>
      <trkpt lat="43.07368" lon="-0.45899">
        <ele>1171.984375</ele>
        <time>2014-08-10T11:47:17Z</time>
      </trkpt>
      <trkpt lat="43.07366" lon="-0.4588">
        <ele>1170.54248</ele>
        <time>2014-08-10T11:47:29Z</time>
      </trkpt>
      <trkpt lat="43.07365" lon="-0.45866">
        <ele>1169.581299</ele>
        <time>2014-08-10T11:47:40Z</time>
      </trkpt>
      <trkpt lat="43.07363" lon="-0.45857">
        <ele>1169.581299</ele>
        <time>2014-08-10T11:47:49Z</time>
      </trkpt>
      <trkpt lat="43.07364" lon="-0.45844">
        <ele>1168.13916</ele>
        <time>2014-08-10T11:47:57Z</time>
      </trkpt>
      <trkpt lat="43.07363" lon="-0.45832">
        <ele>1166.697266</ele>
        <time>2014-08-10T11:48:06Z</time>
      </trkpt>
      <trkpt lat="43.07363" lon="-0.45828">
        <ele>1166.697266</ele>
        <time>2014-08-10T11:48:09Z</time>
      </trkpt>
      <trkpt lat="43.07365" lon="-0.45806">
        <ele>1165.736084</ele>
        <time>2014-08-10T11:48:23Z</time>
      </trkpt>
      <trkpt lat="43.07367" lon="-0.45783">
        <ele>1164.774658</ele>
        <time>2014-08-10T11:48:37Z</time>
      </trkpt>
      <trkpt lat="43.07368" lon="-0.45772">
        <ele>1164.293945</ele>
        <time>2014-08-10T11:48:46Z</time>
      </trkpt>
      <trkpt lat="43.07371" lon="-0.45756">
        <ele>1163.33252</ele>
        <time>2014-08-10T11:48:57Z</time>
      </trkpt>
      <trkpt lat="43.07373" lon="-0.45748">
        <ele>1161.890625</ele>
        <time>2014-08-10T11:49:11Z</time>
      </trkpt>
      <trkpt lat="43.0737" lon="-0.45736">
        <ele>1159.006592</ele>
        <time>2014-08-10T11:49:26Z</time>
      </trkpt>
      <trkpt lat="43.07366" lon="-0.45726">
        <ele>1158.04541</ele>
        <time>2014-08-10T11:49:38Z</time>
      </trkpt>
      <trkpt lat="43.07363" lon="-0.4572">
        <ele>1157.564697</ele>
        <time>2014-08-10T11:49:44Z</time>
      </trkpt>
      <trkpt lat="43.0736" lon="-0.45706">
        <ele>1154.680664</ele>
        <time>2014-08-10T11:49:56Z</time>
      </trkpt>
      <trkpt lat="43.07357" lon="-0.45695">
        <ele>1152.758057</ele>
        <time>2014-08-10T11:50:06Z</time>
      </trkpt>
      <trkpt lat="43.07355" lon="-0.45675">
        <ele>1151.316162</ele>
        <time>2014-08-10T11:50:21Z</time>
      </trkpt>
      <trkpt lat="43.07354" lon="-0.45663">
        <ele>1151.316162</ele>
        <time>2014-08-10T11:50:30Z</time>
      </trkpt>
      <trkpt lat="43.07353" lon="-0.45653">
        <ele>1148.912842</ele>
        <time>2014-08-10T11:50:38Z</time>
      </trkpt>
      <trkpt lat="43.07352" lon="-0.45639">
        <ele>1146.509521</ele>
        <time>2014-08-10T11:50:49Z</time>
      </trkpt>
      <trkpt lat="43.0735" lon="-0.45631">
        <ele>1146.028809</ele>
        <time>2014-08-10T11:50:59Z</time>
      </trkpt>
      <trkpt lat="43.07348" lon="-0.45619">
        <ele>1146.028809</ele>
        <time>2014-08-10T11:51:09Z</time>
      </trkpt>
      <trkpt lat="43.07346" lon="-0.45608">
        <ele>1145.067383</ele>
        <time>2014-08-10T11:51:19Z</time>
      </trkpt>
      <trkpt lat="43.07343" lon="-0.45598">
        <ele>1142.664307</ele>
        <time>2014-08-10T11:51:29Z</time>
      </trkpt>
      <trkpt lat="43.0734" lon="-0.45587">
        <ele>1141.222168</ele>
        <time>2014-08-10T11:51:38Z</time>
      </trkpt>
      <trkpt lat="43.07336" lon="-0.45573">
        <ele>1138.819092</ele>
        <time>2014-08-10T11:51:49Z</time>
      </trkpt>
      <trkpt lat="43.07332" lon="-0.45562">
        <ele>1136.89624</ele>
        <time>2014-08-10T11:52:00Z</time>
      </trkpt>
      <trkpt lat="43.07329" lon="-0.45549">
        <ele>1135.454346</ele>
        <time>2014-08-10T11:52:11Z</time>
      </trkpt>
      <trkpt lat="43.07324" lon="-0.4553">
        <ele>1133.051025</ele>
        <time>2014-08-10T11:52:26Z</time>
      </trkpt>
      <trkpt lat="43.0732" lon="-0.45522">
        <ele>1132.570557</ele>
        <time>2014-08-10T11:52:32Z</time>
      </trkpt>
      <trkpt lat="43.07315" lon="-0.45503">
        <ele>1130.166992</ele>
        <time>2014-08-10T11:52:46Z</time>
      </trkpt>
      <trkpt lat="43.07315" lon="-0.45503">
        <ele>1129.686279</ele>
        <time>2014-08-10T11:52:47Z</time>
      </trkpt>
      <trkpt lat="43.07311" lon="-0.45487">
        <ele>1127.763672</ele>
        <time>2014-08-10T11:52:59Z</time>
      </trkpt>
      <trkpt lat="43.07311" lon="-0.45485">
        <ele>1126.321777</ele>
        <time>2014-08-10T11:53:01Z</time>
      </trkpt>
      <trkpt lat="43.07307" lon="-0.45475">
        <ele>1124.39917</ele>
        <time>2014-08-10T11:53:11Z</time>
      </trkpt>
      <trkpt lat="43.07304" lon="-0.45463">
        <ele>1123.437988</ele>
        <time>2014-08-10T11:53:21Z</time>
      </trkpt>
      <trkpt lat="43.07304" lon="-0.45461">
        <ele>1123.918457</ele>
        <time>2014-08-10T11:53:23Z</time>
      </trkpt>
      <trkpt lat="43.07305" lon="-0.45445">
        <ele>1121.99585</ele>
        <time>2014-08-10T11:53:34Z</time>
      </trkpt>
      <trkpt lat="43.07303" lon="-0.4543">
        <ele>1121.034668</ele>
        <time>2014-08-10T11:53:45Z</time>
      </trkpt>
      <trkpt lat="43.073" lon="-0.45417">
        <ele>1119.112061</ele>
        <time>2014-08-10T11:53:54Z</time>
      </trkpt>
      <trkpt lat="43.07299" lon="-0.45414">
        <ele>1119.592773</ele>
        <time>2014-08-10T11:53:57Z</time>
      </trkpt>
      <trkpt lat="43.07296" lon="-0.45404">
        <ele>1117.669922</ele>
        <time>2014-08-10T11:54:05Z</time>
      </trkpt>
      <trkpt lat="43.07289" lon="-0.45396">
        <ele>1116.70874</ele>
        <time>2014-08-10T11:54:18Z</time>
      </trkpt>
      <trkpt lat="43.07281" lon="-0.45381">
        <ele>1116.228027</ele>
        <time>2014-08-10T11:54:29Z</time>
      </trkpt>
      <trkpt lat="43.07272" lon="-0.45368">
        <ele>1116.70874</ele>
        <time>2014-08-10T11:54:41Z</time>
      </trkpt>
      <trkpt lat="43.07267" lon="-0.45357">
        <ele>1117.189453</ele>
        <time>2014-08-10T11:54:49Z</time>
      </trkpt>
      <trkpt lat="43.07265" lon="-0.45352">
        <ele>1116.70874</ele>
        <time>2014-08-10T11:54:52Z</time>
      </trkpt>
      <trkpt lat="43.07264" lon="-0.45348">
        <ele>1118.150635</ele>
        <time>2014-08-10T11:54:55Z</time>
      </trkpt>
      <trkpt lat="43.07257" lon="-0.45331">
        <ele>1117.669922</ele>
        <time>2014-08-10T11:55:08Z</time>
      </trkpt>
      <trkpt lat="43.07251" lon="-0.45316">
        <ele>1116.70874</ele>
        <time>2014-08-10T11:55:20Z</time>
      </trkpt>
      <trkpt lat="43.07245" lon="-0.45304">
        <ele>1116.228027</ele>
        <time>2014-08-10T11:55:29Z</time>
      </trkpt>
      <trkpt lat="43.07243" lon="-0.45298">
        <ele>1115.747314</ele>
        <time>2014-08-10T11:55:34Z</time>
      </trkpt>
      <trkpt lat="43.07242" lon="-0.45292">
        <ele>1115.747314</ele>
        <time>2014-08-10T11:55:38Z</time>
      </trkpt>
      <trkpt lat="43.07238" lon="-0.45283">
        <ele>1115.747314</ele>
        <time>2014-08-10T11:55:44Z</time>
      </trkpt>
      <trkpt lat="43.07236" lon="-0.45274">
        <ele>1115.266602</ele>
        <time>2014-08-10T11:55:50Z</time>
      </trkpt>
      <trkpt lat="43.07234" lon="-0.45264">
        <ele>1115.747314</ele>
        <time>2014-08-10T11:55:57Z</time>
      </trkpt>
      <trkpt lat="43.0723" lon="-0.45253">
        <ele>1115.266602</ele>
        <time>2014-08-10T11:56:05Z</time>
      </trkpt>
      <trkpt lat="43.07225" lon="-0.45233">
        <ele>1114.785889</ele>
        <time>2014-08-10T11:56:19Z</time>
      </trkpt>
      <trkpt lat="43.0722" lon="-0.45217">
        <ele>1113.343994</ele>
        <time>2014-08-10T11:56:32Z</time>
      </trkpt>
      <trkpt lat="43.07218" lon="-0.45211">
        <ele>1112.863281</ele>
        <time>2014-08-10T11:56:37Z</time>
      </trkpt>
      <trkpt lat="43.07215" lon="-0.45202">
        <ele>1111.9021</ele>
        <time>2014-08-10T11:56:44Z</time>
      </trkpt>
      <trkpt lat="43.07209" lon="-0.4519">
        <ele>1108.056885</ele>
        <time>2014-08-10T11:56:57Z</time>
      </trkpt>
      <trkpt lat="43.07205" lon="-0.45173">
        <ele>1106.134033</ele>
        <time>2014-08-10T11:57:10Z</time>
      </trkpt>
      <trkpt lat="43.07204" lon="-0.45158">
        <ele>1104.692139</ele>
        <time>2014-08-10T11:57:22Z</time>
      </trkpt>
      <trkpt lat="43.07203" lon="-0.45146">
        <ele>1103.730957</ele>
        <time>2014-08-10T11:57:33Z</time>
      </trkpt>
      <trkpt lat="43.072" lon="-0.45129">
        <ele>1102.769531</ele>
        <time>2014-08-10T11:57:47Z</time>
      </trkpt>
      <trkpt lat="43.07197" lon="-0.45123">
        <ele>1102.769531</ele>
        <time>2014-08-10T11:57:52Z</time>
      </trkpt>
      <trkpt lat="43.07197" lon="-0.45112">
        <ele>1101.80835</ele>
        <time>2014-08-10T11:57:59Z</time>
      </trkpt>
      <trkpt lat="43.07195" lon="-0.45098">
        <ele>1100.366455</ele>
        <time>2014-08-10T11:58:11Z</time>
      </trkpt>
      <trkpt lat="43.07195" lon="-0.45084">
        <ele>1098.924072</ele>
        <time>2014-08-10T11:58:25Z</time>
      </trkpt>
      <trkpt lat="43.07194" lon="-0.45068">
        <ele>1097.962891</ele>
        <time>2014-08-10T11:58:37Z</time>
      </trkpt>
      <trkpt lat="43.07194" lon="-0.45055">
        <ele>1096.520996</ele>
        <time>2014-08-10T11:58:47Z</time>
      </trkpt>
      <trkpt lat="43.07196" lon="-0.45045">
        <ele>1095.55957</ele>
        <time>2014-08-10T11:58:53Z</time>
      </trkpt>
      <trkpt lat="43.07194" lon="-0.45032">
        <ele>1094.598145</ele>
        <time>2014-08-10T11:59:03Z</time>
      </trkpt>
      <trkpt lat="43.07194" lon="-0.45029">
        <ele>1094.117676</ele>
        <time>2014-08-10T11:59:06Z</time>
      </trkpt>
      <trkpt lat="43.07189" lon="-0.4502">
        <ele>1091.714355</ele>
        <time>2014-08-10T11:59:18Z</time>
      </trkpt>
      <trkpt lat="43.07181" lon="-0.45012">
        <ele>1088.349854</ele>
        <time>2014-08-10T11:59:31Z</time>
      </trkpt>
      <trkpt lat="43.07173" lon="-0.45004">
        <ele>1086.427246</ele>
        <time>2014-08-10T11:59:43Z</time>
      </trkpt>
      <trkpt lat="43.07171" lon="-0.45">
        <ele>1084.504639</ele>
        <time>2014-08-10T11:59:54Z</time>
      </trkpt>
      <trkpt lat="43.07164" lon="-0.44989">
        <ele>1082.581787</ele>
        <time>2014-08-10T12:00:06Z</time>
      </trkpt>
      <trkpt lat="43.07161" lon="-0.44984">
        <ele>1080.178467</ele>
        <time>2014-08-10T12:00:11Z</time>
      </trkpt>
      <trkpt lat="43.07159" lon="-0.4498">
        <ele>1078.736572</ele>
        <time>2014-08-10T12:00:15Z</time>
      </trkpt>
      <trkpt lat="43.07154" lon="-0.44974">
        <ele>1076.813965</ele>
        <time>2014-08-10T12:00:22Z</time>
      </trkpt>
      <trkpt lat="43.07144" lon="-0.44966">
        <ele>1074.410645</ele>
        <time>2014-08-10T12:00:34Z</time>
      </trkpt>
      <trkpt lat="43.07143" lon="-0.44961">
        <ele>1073.929932</ele>
        <time>2014-08-10T12:00:38Z</time>
      </trkpt>
      <trkpt lat="43.07142" lon="-0.44958">
        <ele>1073.449463</ele>
        <time>2014-08-10T12:00:40Z</time>
      </trkpt>
      <trkpt lat="43.07138" lon="-0.44957">
        <ele>1072.96875</ele>
        <time>2014-08-10T12:00:44Z</time>
      </trkpt>
      <trkpt lat="43.07131" lon="-0.44947">
        <ele>1071.526611</ele>
        <time>2014-08-10T12:00:56Z</time>
      </trkpt>
      <trkpt lat="43.07124" lon="-0.44941">
        <ele>1068.162109</ele>
        <time>2014-08-10T12:01:07Z</time>
      </trkpt>
      <trkpt lat="43.07117" lon="-0.4493">
        <ele>1065.758789</ele>
        <time>2014-08-10T12:01:19Z</time>
      </trkpt>
      <trkpt lat="43.07108" lon="-0.44917">
        <ele>1062.874756</ele>
        <time>2014-08-10T12:01:35Z</time>
      </trkpt>
      <trkpt lat="43.07101" lon="-0.44913">
        <ele>1061.913574</ele>
        <time>2014-08-10T12:01:44Z</time>
      </trkpt>
      <trkpt lat="43.07098" lon="-0.44911">
        <ele>1059.510254</ele>
        <time>2014-08-10T12:01:51Z</time>
      </trkpt>
      <trkpt lat="43.07089" lon="-0.44901">
        <ele>1057.587646</ele>
        <time>2014-08-10T12:02:03Z</time>
      </trkpt>
      <trkpt lat="43.07088" lon="-0.44901">
        <ele>1057.106934</ele>
        <time>2014-08-10T12:02:04Z</time>
      </trkpt>
      <trkpt lat="43.07081" lon="-0.44893">
        <ele>1054.703613</ele>
        <time>2014-08-10T12:02:17Z</time>
      </trkpt>
      <trkpt lat="43.07077" lon="-0.4489">
        <ele>1053.261719</ele>
        <time>2014-08-10T12:02:24Z</time>
      </trkpt>
      <trkpt lat="43.07074" lon="-0.44886">
        <ele>1051.338867</ele>
        <time>2014-08-10T12:02:29Z</time>
      </trkpt>
      <trkpt lat="43.07068" lon="-0.4488">
        <ele>1049.41626</ele>
        <time>2014-08-10T12:02:40Z</time>
      </trkpt>
      <trkpt lat="43.07061" lon="-0.44868">
        <ele>1046.051758</ele>
        <time>2014-08-10T12:02:53Z</time>
      </trkpt>
      <trkpt lat="43.07059" lon="-0.44866">
        <ele>1046.051758</ele>
        <time>2014-08-10T12:02:55Z</time>
      </trkpt>
      <trkpt lat="43.07054" lon="-0.44859">
        <ele>1045.090332</ele>
        <time>2014-08-10T12:03:04Z</time>
      </trkpt>
      <trkpt lat="43.07044" lon="-0.44845">
        <ele>1044.12915</ele>
        <time>2014-08-10T12:03:17Z</time>
      </trkpt>
      <trkpt lat="43.07042" lon="-0.44844">
        <ele>1043.167725</ele>
        <time>2014-08-10T12:03:19Z</time>
      </trkpt>
      <trkpt lat="43.07041" lon="-0.44841">
        <ele>1043.648438</ele>
        <time>2014-08-10T12:03:21Z</time>
      </trkpt>
      <trkpt lat="43.07033" lon="-0.44832">
        <ele>1042.206543</ele>
        <time>2014-08-10T12:03:32Z</time>
      </trkpt>
      <trkpt lat="43.07029" lon="-0.44829">
        <ele>1041.245117</ele>
        <time>2014-08-10T12:03:36Z</time>
      </trkpt>
      <trkpt lat="43.07022" lon="-0.44822">
        <ele>1039.803223</ele>
        <time>2014-08-10T12:03:45Z</time>
      </trkpt>
      <trkpt lat="43.0702" lon="-0.4482">
        <ele>1038.842041</ele>
        <time>2014-08-10T12:03:47Z</time>
      </trkpt>
      <trkpt lat="43.07018" lon="-0.44818">
        <ele>1039.32251</ele>
        <time>2014-08-10T12:03:49Z</time>
      </trkpt>
      <trkpt lat="43.07016" lon="-0.44808">
        <ele>1036.438721</ele>
        <time>2014-08-10T12:03:57Z</time>
      </trkpt>
      <trkpt lat="43.07011" lon="-0.44801">
        <ele>1034.515869</ele>
        <time>2014-08-10T12:04:03Z</time>
      </trkpt>
      <trkpt lat="43.07003" lon="-0.44787">
        <ele>1032.112549</ele>
        <time>2014-08-10T12:04:16Z</time>
      </trkpt>
      <trkpt lat="43.06998" lon="-0.44776">
        <ele>1030.189941</ele>
        <time>2014-08-10T12:04:28Z</time>
      </trkpt>
      <trkpt lat="43.06997" lon="-0.44773">
        <ele>1029.709229</ele>
        <time>2014-08-10T12:04:31Z</time>
      </trkpt>
      <trkpt lat="43.06996" lon="-0.44759">
        <ele>1027.786621</ele>
        <time>2014-08-10T12:04:42Z</time>
      </trkpt>
      <trkpt lat="43.06991" lon="-0.44749">
        <ele>1025.864014</ele>
        <time>2014-08-10T12:04:54Z</time>
      </trkpt>
      <trkpt lat="43.0699" lon="-0.44743">
        <ele>1024.422119</ele>
        <time>2014-08-10T12:04:59Z</time>
      </trkpt>
      <trkpt lat="43.06986" lon="-0.44737">
        <ele>1022.499512</ele>
        <time>2014-08-10T12:05:11Z</time>
      </trkpt>
      <trkpt lat="43.06976" lon="-0.44731">
        <ele>1020.576904</ele>
        <time>2014-08-10T12:05:22Z</time>
      </trkpt>
      <trkpt lat="43.06975" lon="-0.4473">
        <ele>1020.576904</ele>
        <time>2014-08-10T12:05:23Z</time>
      </trkpt>
      <trkpt lat="43.06968" lon="-0.44725">
        <ele>1019.615479</ele>
        <time>2014-08-10T12:05:33Z</time>
      </trkpt>
      <trkpt lat="43.06965" lon="-0.44719">
        <ele>1017.692627</ele>
        <time>2014-08-10T12:05:41Z</time>
      </trkpt>
      <trkpt lat="43.06965" lon="-0.44712">
        <ele>1017.692627</ele>
        <time>2014-08-10T12:05:45Z</time>
      </trkpt>
      <trkpt lat="43.0696" lon="-0.447">
        <ele>1014.328125</ele>
        <time>2014-08-10T12:05:56Z</time>
      </trkpt>
      <trkpt lat="43.06956" lon="-0.44692">
        <ele>1011.444336</ele>
        <time>2014-08-10T12:06:08Z</time>
      </trkpt>
      <trkpt lat="43.06955" lon="-0.44691">
        <ele>1009.521729</ele>
        <time>2014-08-10T12:06:11Z</time>
      </trkpt>
      <trkpt lat="43.06951" lon="-0.4469">
        <ele>1009.521729</ele>
        <time>2014-08-10T12:06:15Z</time>
      </trkpt>
      <trkpt lat="43.06942" lon="-0.44679">
        <ele>1007.118408</ele>
        <time>2014-08-10T12:06:29Z</time>
      </trkpt>
      <trkpt lat="43.06939" lon="-0.44673">
        <ele>1004.715088</ele>
        <time>2014-08-10T12:06:39Z</time>
      </trkpt>
      <trkpt lat="43.06935" lon="-0.44659">
        <ele>1003.272949</ele>
        <time>2014-08-10T12:06:48Z</time>
      </trkpt>
      <trkpt lat="43.06935" lon="-0.44658">
        <ele>1002.792236</ele>
        <time>2014-08-10T12:06:49Z</time>
      </trkpt>
      <trkpt lat="43.06934" lon="-0.44655">
        <ele>1002.792236</ele>
        <time>2014-08-10T12:06:51Z</time>
      </trkpt>
      <trkpt lat="43.06928" lon="-0.44645">
        <ele>999.908447</ele>
        <time>2014-08-10T12:07:03Z</time>
      </trkpt>
      <trkpt lat="43.0692" lon="-0.44639">
        <ele>997.024414</ele>
        <time>2014-08-10T12:07:15Z</time>
      </trkpt>
      <trkpt lat="43.06915" lon="-0.44628">
        <ele>995.101807</ele>
        <time>2014-08-10T12:07:26Z</time>
      </trkpt>
      <trkpt lat="43.06912" lon="-0.44617">
        <ele>992.69873</ele>
        <time>2014-08-10T12:07:36Z</time>
      </trkpt>
      <trkpt lat="43.06904" lon="-0.44605">
        <ele>990.775879</ele>
        <time>2014-08-10T12:07:48Z</time>
      </trkpt>
      <trkpt lat="43.06897" lon="-0.44599">
        <ele>987.411133</ele>
        <time>2014-08-10T12:07:59Z</time>
      </trkpt>
      <trkpt lat="43.06893" lon="-0.44593">
        <ele>986.449951</ele>
        <time>2014-08-10T12:08:10Z</time>
      </trkpt>
      <trkpt lat="43.0689" lon="-0.4459">
        <ele>986.449951</ele>
        <time>2014-08-10T12:08:13Z</time>
      </trkpt>
      <trkpt lat="43.06886" lon="-0.44588">
        <ele>985.488525</ele>
        <time>2014-08-10T12:08:17Z</time>
      </trkpt>
      <trkpt lat="43.06876" lon="-0.4458">
        <ele>982.604736</ele>
        <time>2014-08-10T12:08:28Z</time>
      </trkpt>
      <trkpt lat="43.06868" lon="-0.44577">
        <ele>981.162842</ele>
        <time>2014-08-10T12:08:42Z</time>
      </trkpt>
      <trkpt lat="43.06863" lon="-0.44568">
        <ele>978.759521</ele>
        <time>2014-08-10T12:08:55Z</time>
      </trkpt>
      <trkpt lat="43.0686" lon="-0.4455">
        <ele>976.836914</ele>
        <time>2014-08-10T12:09:08Z</time>
      </trkpt>
      <trkpt lat="43.0686" lon="-0.4455">
        <ele>976.356201</ele>
        <time>2014-08-10T12:09:09Z</time>
      </trkpt>
      <trkpt lat="43.06845" lon="-0.44537">
        <ele>975.394775</ele>
        <time>2014-08-10T12:09:23Z</time>
      </trkpt>
      <trkpt lat="43.06838" lon="-0.44534">
        <ele>974.914307</ele>
        <time>2014-08-10T12:09:32Z</time>
      </trkpt>
      <trkpt lat="43.06838" lon="-0.44535">
        <ele>974.433594</ele>
        <time>2014-08-10T12:09:39Z</time>
      </trkpt>
      <trkpt lat="43.06825" lon="-0.44537">
        <ele>973.952881</ele>
        <time>2014-08-10T12:09:51Z</time>
      </trkpt>
      <trkpt lat="43.06812" lon="-0.44534">
        <ele>973.472412</ele>
        <time>2014-08-10T12:10:03Z</time>
      </trkpt>
      <trkpt lat="43.06802" lon="-0.44538">
        <ele>973.472412</ele>
        <time>2014-08-10T12:10:12Z</time>
      </trkpt>
      <trkpt lat="43.06798" lon="-0.44536">
        <ele>973.472412</ele>
        <time>2014-08-10T12:10:22Z</time>
      </trkpt>
      <trkpt lat="43.06795" lon="-0.44543">
        <ele>974.433594</ele>
        <time>2014-08-10T12:10:32Z</time>
      </trkpt>
      <trkpt lat="43.06792" lon="-0.44553">
        <ele>976.356201</ele>
        <time>2014-08-10T12:10:54Z</time>
      </trkpt>
      <trkpt lat="43.06789" lon="-0.44547">
        <ele>974.914307</ele>
        <time>2014-08-10T12:10:57Z</time>
      </trkpt>
      <trkpt lat="43.06781" lon="-0.44543">
        <ele>974.433594</ele>
        <time>2014-08-10T12:11:08Z</time>
      </trkpt>
      <trkpt lat="43.0678" lon="-0.44537">
        <ele>975.394775</ele>
        <time>2014-08-10T12:11:10Z</time>
      </trkpt>
      <trkpt lat="43.06781" lon="-0.44531">
        <ele>975.394775</ele>
        <time>2014-08-10T12:11:34Z</time>
      </trkpt>
      <trkpt lat="43.06781" lon="-0.4454">
        <ele>974.433594</ele>
        <time>2014-08-10T12:12:07Z</time>
      </trkpt>
      <trkpt lat="43.06782" lon="-0.44542">
        <ele>976.356201</ele>
        <time>2014-08-10T12:12:34Z</time>
      </trkpt>
      <trkpt lat="43.06775" lon="-0.44548">
        <ele>975.394775</ele>
        <time>2014-08-10T12:12:57Z</time>
      </trkpt>
      <trkpt lat="43.06775" lon="-0.44548">
        <ele>975.394775</ele>
        <time>2014-08-10T12:12:58Z</time>
      </trkpt>
      <trkpt lat="43.06777" lon="-0.4454">
        <ele>974.433594</ele>
        <time>2014-08-10T12:13:27Z</time>
      </trkpt>
      <trkpt lat="43.06775" lon="-0.44541">
        <ele>974.914307</ele>
        <time>2014-08-10T12:14:04Z</time>
      </trkpt>
      <trkpt lat="43.06777" lon="-0.44541">
        <ele>974.914307</ele>
        <time>2014-08-10T12:14:06Z</time>
      </trkpt>
      <trkpt lat="43.06778" lon="-0.44544">
        <ele>974.914307</ele>
        <time>2014-08-10T12:14:09Z</time>
      </trkpt>
      <trkpt lat="43.06776" lon="-0.4456">
        <ele>976.356201</ele>
        <time>2014-08-10T12:14:22Z</time>
      </trkpt>
      <trkpt lat="43.06773" lon="-0.44571">
        <ele>977.317627</ele>
        <time>2014-08-10T12:14:31Z</time>
      </trkpt>
      <trkpt lat="43.06773" lon="-0.44575">
        <ele>978.759521</ele>
        <time>2014-08-10T12:14:34Z</time>
      </trkpt>
      <trkpt lat="43.06773" lon="-0.44578">
        <ele>978.759521</ele>
        <time>2014-08-10T12:14:36Z</time>
      </trkpt>
      <trkpt lat="43.06766" lon="-0.44591">
        <ele>979.23999</ele>
        <time>2014-08-10T12:14:47Z</time>
      </trkpt>
      <trkpt lat="43.06759" lon="-0.44594">
        <ele>979.720703</ele>
        <time>2014-08-10T12:14:54Z</time>
      </trkpt>
      <trkpt lat="43.06757" lon="-0.44594">
        <ele>980.682129</ele>
        <time>2014-08-10T12:14:56Z</time>
      </trkpt>
      <trkpt lat="43.06755" lon="-0.44593">
        <ele>980.201416</ele>
        <time>2014-08-10T12:14:58Z</time>
      </trkpt>
      <trkpt lat="43.06749" lon="-0.44595">
        <ele>979.720703</ele>
        <time>2014-08-10T12:15:08Z</time>
      </trkpt>
      <trkpt lat="43.06747" lon="-0.44603">
        <ele>979.23999</ele>
        <time>2014-08-10T12:15:20Z</time>
      </trkpt>
      <trkpt lat="43.06745" lon="-0.44611">
        <ele>978.759521</ele>
        <time>2014-08-10T12:15:30Z</time>
      </trkpt>
      <trkpt lat="43.06743" lon="-0.4462">
        <ele>978.759521</ele>
        <time>2014-08-10T12:15:40Z</time>
      </trkpt>
      <trkpt lat="43.06744" lon="-0.4463">
        <ele>979.23999</ele>
        <time>2014-08-10T12:15:53Z</time>
      </trkpt>
      <trkpt lat="43.06747" lon="-0.44642">
        <ele>977.798096</ele>
        <time>2014-08-10T12:16:09Z</time>
      </trkpt>
      <trkpt lat="43.06748" lon="-0.44643">
        <ele>977.798096</ele>
        <time>2014-08-10T12:16:11Z</time>
      </trkpt>
      <trkpt lat="43.06751" lon="-0.44646">
        <ele>977.798096</ele>
        <time>2014-08-10T12:16:15Z</time>
      </trkpt>
      <trkpt lat="43.06753" lon="-0.44648">
        <ele>977.798096</ele>
        <time>2014-08-10T12:16:18Z</time>
      </trkpt>
      <trkpt lat="43.06755" lon="-0.44653">
        <ele>977.317627</ele>
        <time>2014-08-10T12:16:22Z</time>
      </trkpt>
      <trkpt lat="43.06755" lon="-0.44655">
        <ele>977.798096</ele>
        <time>2014-08-10T12:16:24Z</time>
      </trkpt>
      <trkpt lat="43.06755" lon="-0.44658">
        <ele>978.278809</ele>
        <time>2014-08-10T12:16:26Z</time>
      </trkpt>
      <trkpt lat="43.06754" lon="-0.44663">
        <ele>977.798096</ele>
        <time>2014-08-10T12:16:29Z</time>
      </trkpt>
      <trkpt lat="43.06752" lon="-0.44681">
        <ele>977.798096</ele>
        <time>2014-08-10T12:16:41Z</time>
      </trkpt>
      <trkpt lat="43.0675" lon="-0.447">
        <ele>977.798096</ele>
        <time>2014-08-10T12:16:54Z</time>
      </trkpt>
      <trkpt lat="43.06751" lon="-0.44717">
        <ele>977.798096</ele>
        <time>2014-08-10T12:17:06Z</time>
      </trkpt>
      <trkpt lat="43.06752" lon="-0.44738">
        <ele>977.317627</ele>
        <time>2014-08-10T12:17:19Z</time>
      </trkpt>
      <trkpt lat="43.06753" lon="-0.44747">
        <ele>975.394775</ele>
        <time>2014-08-10T12:17:25Z</time>
      </trkpt>
      <trkpt lat="43.06754" lon="-0.44756">
        <ele>975.394775</ele>
        <time>2014-08-10T12:17:32Z</time>
      </trkpt>
      <trkpt lat="43.06755" lon="-0.44764">
        <ele>974.914307</ele>
        <time>2014-08-10T12:17:37Z</time>
      </trkpt>
      <trkpt lat="43.06757" lon="-0.44777">
        <ele>973.472412</ele>
        <time>2014-08-10T12:17:45Z</time>
      </trkpt>
      <trkpt lat="43.06758" lon="-0.44786">
        <ele>973.472412</ele>
        <time>2014-08-10T12:17:50Z</time>
      </trkpt>
      <trkpt lat="43.0676" lon="-0.44796">
        <ele>972.510986</ele>
        <time>2014-08-10T12:17:56Z</time>
      </trkpt>
      <trkpt lat="43.06763" lon="-0.44807">
        <ele>970.107422</ele>
        <time>2014-08-10T12:18:03Z</time>
      </trkpt>
      <trkpt lat="43.06763" lon="-0.4481">
        <ele>970.107422</ele>
        <time>2014-08-10T12:18:05Z</time>
      </trkpt>
      <trkpt lat="43.06769" lon="-0.44832">
        <ele>968.665527</ele>
        <time>2014-08-10T12:18:19Z</time>
      </trkpt>
      <trkpt lat="43.06773" lon="-0.44852">
        <ele>967.223633</ele>
        <time>2014-08-10T12:18:33Z</time>
      </trkpt>
      <trkpt lat="43.06773" lon="-0.44857">
        <ele>967.704102</ele>
        <time>2014-08-10T12:18:36Z</time>
      </trkpt>
      <trkpt lat="43.06774" lon="-0.44867">
        <ele>966.74292</ele>
        <time>2014-08-10T12:18:42Z</time>
      </trkpt>
      <trkpt lat="43.06777" lon="-0.44882">
        <ele>966.262207</ele>
        <time>2014-08-10T12:18:51Z</time>
      </trkpt>
      <trkpt lat="43.06778" lon="-0.44891">
        <ele>965.301025</ele>
        <time>2014-08-10T12:18:58Z</time>
      </trkpt>
      <trkpt lat="43.06779" lon="-0.44894">
        <ele>964.820313</ele>
        <time>2014-08-10T12:19:00Z</time>
      </trkpt>
      <trkpt lat="43.0678" lon="-0.44901">
        <ele>963.858887</ele>
        <time>2014-08-10T12:19:05Z</time>
      </trkpt>
      <trkpt lat="43.06777" lon="-0.44915">
        <ele>963.378418</ele>
        <time>2014-08-10T12:19:16Z</time>
      </trkpt>
      <trkpt lat="43.06779" lon="-0.44928">
        <ele>962.897705</ele>
        <time>2014-08-10T12:19:28Z</time>
      </trkpt>
      <trkpt lat="43.0678" lon="-0.44932">
        <ele>962.416992</ele>
        <time>2014-08-10T12:19:31Z</time>
      </trkpt>
      <trkpt lat="43.06784" lon="-0.44943">
        <ele>961.936523</ele>
        <time>2014-08-10T12:19:39Z</time>
      </trkpt>
      <trkpt lat="43.06787" lon="-0.44958">
        <ele>958.571777</ele>
        <time>2014-08-10T12:19:51Z</time>
      </trkpt>
      <trkpt lat="43.06788" lon="-0.4497">
        <ele>957.129883</ele>
        <time>2014-08-10T12:20:03Z</time>
      </trkpt>
      <trkpt lat="43.06789" lon="-0.4498">
        <ele>954.726318</ele>
        <time>2014-08-10T12:20:10Z</time>
      </trkpt>
      <trkpt lat="43.06788" lon="-0.44992">
        <ele>953.765137</ele>
        <time>2014-08-10T12:20:21Z</time>
      </trkpt>
      <trkpt lat="43.0679" lon="-0.45">
        <ele>953.284424</ele>
        <time>2014-08-10T12:20:27Z</time>
      </trkpt>
      <trkpt lat="43.0679" lon="-0.4501">
        <ele>952.803711</ele>
        <time>2014-08-10T12:20:33Z</time>
      </trkpt>
      <trkpt lat="43.06791" lon="-0.45012">
        <ele>952.322998</ele>
        <time>2014-08-10T12:20:35Z</time>
      </trkpt>
      <trkpt lat="43.06795" lon="-0.45018">
        <ele>948.958496</ele>
        <time>2014-08-10T12:20:45Z</time>
      </trkpt>
      <trkpt lat="43.06798" lon="-0.45029">
        <ele>947.516602</ele>
        <time>2014-08-10T12:20:56Z</time>
      </trkpt>
      <trkpt lat="43.06799" lon="-0.4503">
        <ele>947.516602</ele>
        <time>2014-08-10T12:20:57Z</time>
      </trkpt>
      <trkpt lat="43.068" lon="-0.45038">
        <ele>946.55542</ele>
        <time>2014-08-10T12:21:09Z</time>
      </trkpt>
      <trkpt lat="43.06801" lon="-0.45039">
        <ele>946.55542</ele>
        <time>2014-08-10T12:21:11Z</time>
      </trkpt>
      <trkpt lat="43.06808" lon="-0.45046">
        <ele>946.074707</ele>
        <time>2014-08-10T12:21:22Z</time>
      </trkpt>
      <trkpt lat="43.06808" lon="-0.45046">
        <ele>946.55542</ele>
        <time>2014-08-10T12:21:23Z</time>
      </trkpt>
      <trkpt lat="43.06813" lon="-0.45056">
        <ele>944.632568</ele>
        <time>2014-08-10T12:21:29Z</time>
      </trkpt>
      <trkpt lat="43.06818" lon="-0.45057">
        <ele>946.074707</ele>
        <time>2014-08-10T12:21:40Z</time>
      </trkpt>
      <trkpt lat="43.0682" lon="-0.45055">
        <ele>945.593994</ele>
        <time>2014-08-10T12:21:43Z</time>
      </trkpt>
      <trkpt lat="43.06822" lon="-0.45052">
        <ele>945.593994</ele>
        <time>2014-08-10T12:21:47Z</time>
      </trkpt>
      <trkpt lat="43.06826" lon="-0.45052">
        <ele>945.593994</ele>
        <time>2014-08-10T12:21:52Z</time>
      </trkpt>
      <trkpt lat="43.06831" lon="-0.45059">
        <ele>946.074707</ele>
        <time>2014-08-10T12:22:03Z</time>
      </trkpt>
      <trkpt lat="43.06833" lon="-0.45076">
        <ele>946.55542</ele>
        <time>2014-08-10T12:22:13Z</time>
      </trkpt>
      <trkpt lat="43.06835" lon="-0.45095">
        <ele>948.477783</ele>
        <time>2014-08-10T12:22:22Z</time>
      </trkpt>
      <trkpt lat="43.06835" lon="-0.45096">
        <ele>948.958496</ele>
        <time>2014-08-10T12:22:23Z</time>
      </trkpt>
      <trkpt lat="43.06834" lon="-0.45097">
        <ele>948.477783</ele>
        <time>2014-08-10T12:22:24Z</time>
      </trkpt>
      <trkpt lat="43.06836" lon="-0.45113">
        <ele>950.400635</ele>
        <time>2014-08-10T12:22:35Z</time>
      </trkpt>
      <trkpt lat="43.06836" lon="-0.45128">
        <ele>950.881104</ele>
        <time>2014-08-10T12:22:46Z</time>
      </trkpt>
      <trkpt lat="43.06836" lon="-0.4513">
        <ele>951.361816</ele>
        <time>2014-08-10T12:22:50Z</time>
      </trkpt>
      <trkpt lat="43.06829" lon="-0.45134">
        <ele>949.919922</ele>
        <time>2014-08-10T12:23:02Z</time>
      </trkpt>
      <trkpt lat="43.0683" lon="-0.45136">
        <ele>949.919922</ele>
        <time>2014-08-10T12:23:03Z</time>
      </trkpt>
      <trkpt lat="43.06826" lon="-0.45145">
        <ele>949.919922</ele>
        <time>2014-08-10T12:23:13Z</time>
      </trkpt>
      <trkpt lat="43.06822" lon="-0.45148">
        <ele>950.400635</ele>
        <time>2014-08-10T12:23:17Z</time>
      </trkpt>
      <trkpt lat="43.06813" lon="-0.45151">
        <ele>950.400635</ele>
        <time>2014-08-10T12:23:26Z</time>
      </trkpt>
      <trkpt lat="43.068" lon="-0.45152">
        <ele>949.919922</ele>
        <time>2014-08-10T12:23:40Z</time>
      </trkpt>
      <trkpt lat="43.068" lon="-0.45152">
        <ele>949.919922</ele>
        <time>2014-08-10T12:23:41Z</time>
      </trkpt>
      <trkpt lat="43.06796" lon="-0.45152">
        <ele>949.919922</ele>
        <time>2014-08-10T12:23:44Z</time>
      </trkpt>
      <trkpt lat="43.06794" lon="-0.45152">
        <ele>950.400635</ele>
        <time>2014-08-10T12:23:48Z</time>
      </trkpt>
      <trkpt lat="43.06778" lon="-0.45161">
        <ele>949.919922</ele>
        <time>2014-08-10T12:24:00Z</time>
      </trkpt>
      <trkpt lat="43.06775" lon="-0.45162">
        <ele>949.919922</ele>
        <time>2014-08-10T12:24:02Z</time>
      </trkpt>
      <trkpt lat="43.0677" lon="-0.45168">
        <ele>950.400635</ele>
        <time>2014-08-10T12:24:09Z</time>
      </trkpt>
      <trkpt lat="43.06764" lon="-0.4517">
        <ele>950.400635</ele>
        <time>2014-08-10T12:24:13Z</time>
      </trkpt>
      <trkpt lat="43.06761" lon="-0.45178">
        <ele>949.439209</ele>
        <time>2014-08-10T12:24:21Z</time>
      </trkpt>
      <trkpt lat="43.06759" lon="-0.45179">
        <ele>948.477783</ele>
        <time>2014-08-10T12:24:23Z</time>
      </trkpt>
      <trkpt lat="43.06753" lon="-0.45189">
        <ele>947.035889</ele>
        <time>2014-08-10T12:24:35Z</time>
      </trkpt>
      <trkpt lat="43.06746" lon="-0.45189">
        <ele>943.671387</ele>
        <time>2014-08-10T12:24:45Z</time>
      </trkpt>
      <trkpt lat="43.06742" lon="-0.45197">
        <ele>942.710205</ele>
        <time>2014-08-10T12:24:55Z</time>
      </trkpt>
      <trkpt lat="43.06739" lon="-0.45196">
        <ele>941.748779</ele>
        <time>2014-08-10T12:25:00Z</time>
      </trkpt>
      <trkpt lat="43.06735" lon="-0.45202">
        <ele>940.306885</ele>
        <time>2014-08-10T12:25:07Z</time>
      </trkpt>
      <trkpt lat="43.0673" lon="-0.45213">
        <ele>937.422607</ele>
        <time>2014-08-10T12:25:20Z</time>
      </trkpt>
      <trkpt lat="43.06726" lon="-0.45218">
        <ele>935.5</ele>
        <time>2014-08-10T12:25:27Z</time>
      </trkpt>
      <trkpt lat="43.06725" lon="-0.4522">
        <ele>934.058105</ele>
        <time>2014-08-10T12:25:30Z</time>
      </trkpt>
      <trkpt lat="43.06723" lon="-0.45222">
        <ele>933.09668</ele>
        <time>2014-08-10T12:25:34Z</time>
      </trkpt>
      <trkpt lat="43.06716" lon="-0.45226">
        <ele>931.174316</ele>
        <time>2014-08-10T12:25:48Z</time>
      </trkpt>
      <trkpt lat="43.06712" lon="-0.45228">
        <ele>930.693604</ele>
        <time>2014-08-10T12:25:53Z</time>
      </trkpt>
      <trkpt lat="43.06708" lon="-0.45236">
        <ele>928.290283</ele>
        <time>2014-08-10T12:26:05Z</time>
      </trkpt>
      <trkpt lat="43.06704" lon="-0.45242">
        <ele>926.367676</ele>
        <time>2014-08-10T12:26:15Z</time>
      </trkpt>
      <trkpt lat="43.06701" lon="-0.45249">
        <ele>924.925781</ele>
        <time>2014-08-10T12:26:54Z</time>
      </trkpt>
      <trkpt lat="43.067" lon="-0.45252">
        <ele>923.964111</ele>
        <time>2014-08-10T12:26:59Z</time>
      </trkpt>
      <trkpt lat="43.06696" lon="-0.45264">
        <ele>921.560791</ele>
        <time>2014-08-10T12:27:13Z</time>
      </trkpt>
      <trkpt lat="43.06692" lon="-0.45272">
        <ele>919.157715</ele>
        <time>2014-08-10T12:27:23Z</time>
      </trkpt>
      <trkpt lat="43.06691" lon="-0.45275">
        <ele>917.715576</ele>
        <time>2014-08-10T12:27:26Z</time>
      </trkpt>
      <trkpt lat="43.06684" lon="-0.45282">
        <ele>916.273682</ele>
        <time>2014-08-10T12:27:36Z</time>
      </trkpt>
      <trkpt lat="43.06679" lon="-0.4529">
        <ele>915.3125</ele>
        <time>2014-08-10T12:27:47Z</time>
      </trkpt>
      <trkpt lat="43.06675" lon="-0.45297">
        <ele>914.351074</ele>
        <time>2014-08-10T12:27:56Z</time>
      </trkpt>
      <trkpt lat="43.06671" lon="-0.45302">
        <ele>911.947998</ele>
        <time>2014-08-10T12:28:07Z</time>
      </trkpt>
      <trkpt lat="43.06662" lon="-0.45311">
        <ele>909.063965</ele>
        <time>2014-08-10T12:28:21Z</time>
      </trkpt>
      <trkpt lat="43.0666" lon="-0.45311">
        <ele>907.621826</ele>
        <time>2014-08-10T12:28:45Z</time>
      </trkpt>
      <trkpt lat="43.06657" lon="-0.45316">
        <ele>906.179688</ele>
        <time>2014-08-10T12:29:05Z</time>
      </trkpt>
      <trkpt lat="43.06652" lon="-0.45323">
        <ele>904.257324</ele>
        <time>2014-08-10T12:29:19Z</time>
      </trkpt>
      <trkpt lat="43.06649" lon="-0.45325">
        <ele>903.776611</ele>
        <time>2014-08-10T12:29:23Z</time>
      </trkpt>
      <trkpt lat="43.06643" lon="-0.45339">
        <ele>902.334473</ele>
        <time>2014-08-10T12:29:36Z</time>
      </trkpt>
      <trkpt lat="43.06638" lon="-0.45347">
        <ele>901.373291</ele>
        <time>2014-08-10T12:29:41Z</time>
      </trkpt>
      <trkpt lat="43.06634" lon="-0.45352">
        <ele>900.892578</ele>
        <time>2014-08-10T12:29:46Z</time>
      </trkpt>
      <trkpt lat="43.06625" lon="-0.45368">
        <ele>898.489258</ele>
        <time>2014-08-10T12:30:00Z</time>
      </trkpt>
      <trkpt lat="43.06625" lon="-0.4537">
        <ele>898.489258</ele>
        <time>2014-08-10T12:30:02Z</time>
      </trkpt>
      <trkpt lat="43.06623" lon="-0.45377">
        <ele>898.008789</ele>
        <time>2014-08-10T12:30:09Z</time>
      </trkpt>
      <trkpt lat="43.06624" lon="-0.4538">
        <ele>897.528076</ele>
        <time>2014-08-10T12:30:11Z</time>
      </trkpt>
      <trkpt lat="43.06625" lon="-0.45387">
        <ele>896.566895</ele>
        <time>2014-08-10T12:30:17Z</time>
      </trkpt>
      <trkpt lat="43.06626" lon="-0.45394">
        <ele>895.605469</ele>
        <time>2014-08-10T12:30:22Z</time>
      </trkpt>
      <trkpt lat="43.06628" lon="-0.45412">
        <ele>894.163574</ele>
        <time>2014-08-10T12:30:34Z</time>
      </trkpt>
      <trkpt lat="43.06629" lon="-0.45421">
        <ele>893.202148</ele>
        <time>2014-08-10T12:30:42Z</time>
      </trkpt>
      <trkpt lat="43.06628" lon="-0.45427">
        <ele>893.202148</ele>
        <time>2014-08-10T12:30:46Z</time>
      </trkpt>
      <trkpt lat="43.06628" lon="-0.45442">
        <ele>891.76001</ele>
        <time>2014-08-10T12:30:57Z</time>
      </trkpt>
      <trkpt lat="43.0663" lon="-0.45448">
        <ele>890.798584</ele>
        <time>2014-08-10T12:31:01Z</time>
      </trkpt>
      <trkpt lat="43.06631" lon="-0.45469">
        <ele>890.798584</ele>
        <time>2014-08-10T12:31:15Z</time>
      </trkpt>
      <trkpt lat="43.06631" lon="-0.45479">
        <ele>890.798584</ele>
        <time>2014-08-10T12:31:21Z</time>
      </trkpt>
      <trkpt lat="43.06631" lon="-0.45487">
        <ele>890.318115</ele>
        <time>2014-08-10T12:31:26Z</time>
      </trkpt>
      <trkpt lat="43.0663" lon="-0.45508">
        <ele>890.798584</ele>
        <time>2014-08-10T12:31:39Z</time>
      </trkpt>
      <trkpt lat="43.06626" lon="-0.45525">
        <ele>891.279297</ele>
        <time>2014-08-10T12:31:50Z</time>
      </trkpt>
      <trkpt lat="43.06625" lon="-0.45528">
        <ele>891.279297</ele>
        <time>2014-08-10T12:31:52Z</time>
      </trkpt>
      <trkpt lat="43.0662" lon="-0.45548">
        <ele>890.318115</ele>
        <time>2014-08-10T12:32:05Z</time>
      </trkpt>
      <trkpt lat="43.06614" lon="-0.45564">
        <ele>888.395508</ele>
        <time>2014-08-10T12:32:17Z</time>
      </trkpt>
      <trkpt lat="43.06611" lon="-0.45579">
        <ele>887.434082</ele>
        <time>2014-08-10T12:32:29Z</time>
      </trkpt>
      <trkpt lat="43.06608" lon="-0.45589">
        <ele>886.953369</ele>
        <time>2014-08-10T12:32:36Z</time>
      </trkpt>
      <trkpt lat="43.06608" lon="-0.45591">
        <ele>886.953369</ele>
        <time>2014-08-10T12:32:38Z</time>
      </trkpt>
      <trkpt lat="43.06598" lon="-0.45613">
        <ele>884.550293</ele>
        <time>2014-08-10T12:32:54Z</time>
      </trkpt>
      <trkpt lat="43.06591" lon="-0.45632">
        <ele>881.185791</ele>
        <time>2014-08-10T12:33:08Z</time>
      </trkpt>
      <trkpt lat="43.06588" lon="-0.45637">
        <ele>881.185791</ele>
        <time>2014-08-10T12:33:12Z</time>
      </trkpt>
      <trkpt lat="43.0658" lon="-0.45656">
        <ele>879.262939</ele>
        <time>2014-08-10T12:33:25Z</time>
      </trkpt>
      <trkpt lat="43.0657" lon="-0.45674">
        <ele>878.301758</ele>
        <time>2014-08-10T12:33:40Z</time>
      </trkpt>
      <trkpt lat="43.0657" lon="-0.45679">
        <ele>878.301758</ele>
        <time>2014-08-10T12:33:43Z</time>
      </trkpt>
      <trkpt lat="43.06566" lon="-0.45687">
        <ele>877.821045</ele>
        <time>2014-08-10T12:33:49Z</time>
      </trkpt>
      <trkpt lat="43.06556" lon="-0.45704">
        <ele>876.37915</ele>
        <time>2014-08-10T12:34:03Z</time>
      </trkpt>
      <trkpt lat="43.06544" lon="-0.45722">
        <ele>875.41748</ele>
        <time>2014-08-10T12:34:17Z</time>
      </trkpt>
      <trkpt lat="43.06542" lon="-0.45727">
        <ele>875.41748</ele>
        <time>2014-08-10T12:34:21Z</time>
      </trkpt>
      <trkpt lat="43.06537" lon="-0.45736">
        <ele>874.937012</ele>
        <time>2014-08-10T12:34:33Z</time>
      </trkpt>
      <trkpt lat="43.06533" lon="-0.4574">
        <ele>874.456299</ele>
        <time>2014-08-10T12:34:38Z</time>
      </trkpt>
      <trkpt lat="43.06525" lon="-0.45757">
        <ele>874.456299</ele>
        <time>2014-08-10T12:34:51Z</time>
      </trkpt>
      <trkpt lat="43.06519" lon="-0.45775">
        <ele>872.052979</ele>
        <time>2014-08-10T12:35:05Z</time>
      </trkpt>
      <trkpt lat="43.06518" lon="-0.45777">
        <ele>871.572266</ele>
        <time>2014-08-10T12:35:07Z</time>
      </trkpt>
      <trkpt lat="43.06511" lon="-0.45782">
        <ele>871.091797</ele>
        <time>2014-08-10T12:35:14Z</time>
      </trkpt>
      <trkpt lat="43.06495" lon="-0.45787">
        <ele>867.246582</ele>
        <time>2014-08-10T12:35:31Z</time>
      </trkpt>
      <trkpt lat="43.06486" lon="-0.45786">
        <ele>866.765869</ele>
        <time>2014-08-10T12:35:42Z</time>
      </trkpt>
      <trkpt lat="43.06484" lon="-0.45786">
        <ele>865.804688</ele>
        <time>2014-08-10T12:35:44Z</time>
      </trkpt>
      <trkpt lat="43.06481" lon="-0.45786">
        <ele>864.843262</ele>
        <time>2014-08-10T12:35:47Z</time>
      </trkpt>
      <trkpt lat="43.06468" lon="-0.45786">
        <ele>862.439941</ele>
        <time>2014-08-10T12:36:01Z</time>
      </trkpt>
      <trkpt lat="43.06454" lon="-0.45783">
        <ele>859.555908</ele>
        <time>2014-08-10T12:36:17Z</time>
      </trkpt>
      <trkpt lat="43.0644" lon="-0.45781">
        <ele>857.152588</ele>
        <time>2014-08-10T12:36:30Z</time>
      </trkpt>
      <trkpt lat="43.06436" lon="-0.4578">
        <ele>856.671875</ele>
        <time>2014-08-10T12:36:35Z</time>
      </trkpt>
      <trkpt lat="43.06433" lon="-0.45778">
        <ele>856.671875</ele>
        <time>2014-08-10T12:36:38Z</time>
      </trkpt>
      <trkpt lat="43.06426" lon="-0.45778">
        <ele>855.710693</ele>
        <time>2014-08-10T12:36:44Z</time>
      </trkpt>
      <trkpt lat="43.06412" lon="-0.45776">
        <ele>854.749268</ele>
        <time>2014-08-10T12:36:57Z</time>
      </trkpt>
      <trkpt lat="43.064" lon="-0.45778">
        <ele>853.788086</ele>
        <time>2014-08-10T12:37:10Z</time>
      </trkpt>
      <trkpt lat="43.064" lon="-0.45778">
        <ele>853.307373</ele>
        <time>2014-08-10T12:37:11Z</time>
      </trkpt>
      <trkpt lat="43.06396" lon="-0.45776">
        <ele>852.345947</ele>
        <time>2014-08-10T12:37:16Z</time>
      </trkpt>
      <trkpt lat="43.06391" lon="-0.45775">
        <ele>851.865479</ele>
        <time>2014-08-10T12:37:20Z</time>
      </trkpt>
      <trkpt lat="43.06387" lon="-0.45773">
        <ele>851.384766</ele>
        <time>2014-08-10T12:37:25Z</time>
      </trkpt>
      <trkpt lat="43.06385" lon="-0.45771">
        <ele>850.904053</ele>
        <time>2014-08-10T12:37:27Z</time>
      </trkpt>
      <trkpt lat="43.06382" lon="-0.4577">
        <ele>851.384766</ele>
        <time>2014-08-10T12:37:30Z</time>
      </trkpt>
      <trkpt lat="43.06377" lon="-0.45764">
        <ele>850.423584</ele>
        <time>2014-08-10T12:37:37Z</time>
      </trkpt>
      <trkpt lat="43.06367" lon="-0.45766">
        <ele>850.423584</ele>
        <time>2014-08-10T12:37:49Z</time>
      </trkpt>
      <trkpt lat="43.06354" lon="-0.45764">
        <ele>849.462158</ele>
        <time>2014-08-10T12:38:01Z</time>
      </trkpt>
      <trkpt lat="43.06348" lon="-0.45761">
        <ele>848.020264</ele>
        <time>2014-08-10T12:38:12Z</time>
      </trkpt>
      <trkpt lat="43.06342" lon="-0.45763">
        <ele>846.097656</ele>
        <time>2014-08-10T12:38:20Z</time>
      </trkpt>
      <trkpt lat="43.06335" lon="-0.45756">
        <ele>846.097656</ele>
        <time>2014-08-10T12:38:30Z</time>
      </trkpt>
      <trkpt lat="43.06329" lon="-0.45739">
        <ele>845.616943</ele>
        <time>2014-08-10T12:38:45Z</time>
      </trkpt>
      <trkpt lat="43.06326" lon="-0.45733">
        <ele>844.655518</ele>
        <time>2014-08-10T12:39:00Z</time>
      </trkpt>
      <trkpt lat="43.0633" lon="-0.4573">
        <ele>844.175049</ele>
        <time>2014-08-10T12:39:44Z</time>
      </trkpt>
      <trkpt lat="43.06326" lon="-0.45727">
        <ele>844.175049</ele>
        <time>2014-08-10T12:40:28Z</time>
      </trkpt>
      <trkpt lat="43.06324" lon="-0.45729">
        <ele>844.175049</ele>
        <time>2014-08-10T12:40:48Z</time>
      </trkpt>
      <trkpt lat="43.06317" lon="-0.45722">
        <ele>843.694092</ele>
        <time>2014-08-10T12:41:18Z</time>
      </trkpt>
      <trkpt lat="43.06318" lon="-0.45723">
        <ele>843.213379</ele>
        <time>2014-08-10T12:41:34Z</time>
      </trkpt>
      <trkpt lat="43.06322" lon="-0.45728">
        <ele>844.655518</ele>
        <time>2014-08-10T12:41:48Z</time>
      </trkpt>
    </trkseg>
  </trk>
</gpx>